<?xml version="1.0" encoding="UTF-8" standalone="no" ?>
<gpx xmlns="http://www.topografix.com/GPX/1/1" xmlns:xsi="http://www.w3.org/2001/XMLSchema-instance" xsi:schemaLocation="http://www.topografix.com/GPX/1/1 http://www.topografix.com/GPX/1/1/gpx.xsd" version="1.1" creator="VisuGPX - https://www.visugpx.com">
  <metadata>
    <name>MOTO CORSICA</name>
  </metadata>
  <wpt lat="45.87977" lon="4.59604">
    <ele>292.6</ele>
    <name><![CDATA[Argon]]></name>
  </wpt>
  <wpt lat="41.62056" lon="9.29931">
    <ele>40.02</ele>
    <name><![CDATA[Camping Porto Vecchio]]></name>
  </wpt>
  <wpt lat="43.29702" lon="3.51216">
    <ele>-1.08</ele>
    <name><![CDATA[Cassiopee]]></name>
  </wpt>
  <wpt lat="41.62054" lon="9.29927">
    <ele>24.88</ele>
    <name><![CDATA[Dernière position]]></name>
  </wpt>
  <wpt lat="25.06178" lon="121.64027">
    <ele>38.1</ele>
    <name><![CDATA[Garmin Asia]]></name>
  </wpt>
  <wpt lat="50.9017" lon="-1.48935">
    <ele>35.93</ele>
    <name><![CDATA[Garmin Europe]]></name>
  </wpt>
  <wpt lat="38.85555" lon="-94.79902">
    <ele>325.05</ele>
    <name><![CDATA[Garmin USA]]></name>
  </wpt>
  <wpt lat="45.53375" lon="4.6308">
    <ele>238.77</ele>
    <name><![CDATA[Zezette]]></name>
  </wpt>
  <trk>
    <name><![CDATA[Enregistremen: 03 JUIN 2014 13:42]]></name>
    <trkseg>
      <trkpt lat="41.62053" lon="9.29924">
        <ele>60.22</ele>
        <time>2014-06-03T11:42:57Z</time>
      </trkpt>
      <trkpt lat="41.62068" lon="9.29942">
        <ele>22.25</ele>
        <time>2014-06-03T11:43:34Z</time>
      </trkpt>
      <trkpt lat="41.62072" lon="9.2994">
        <ele>20.32</ele>
        <time>2014-06-03T11:44:09Z</time>
      </trkpt>
      <trkpt lat="41.62073" lon="9.29938">
        <ele>20.32</ele>
        <time>2014-06-03T11:44:45Z</time>
      </trkpt>
      <trkpt lat="41.62068" lon="9.29935">
        <ele>21.77</ele>
        <time>2014-06-03T11:45:13Z</time>
      </trkpt>
      <trkpt lat="41.62066" lon="9.29935">
        <ele>25.13</ele>
        <time>2014-06-03T11:45:41Z</time>
      </trkpt>
      <trkpt lat="41.62054" lon="9.29934">
        <ele>25.13</ele>
        <time>2014-06-03T11:45:49Z</time>
      </trkpt>
      <trkpt lat="41.62053" lon="9.29934">
        <ele>25.61</ele>
        <time>2014-06-03T11:46:20Z</time>
      </trkpt>
      <trkpt lat="41.62042" lon="9.29906">
        <ele>28.5</ele>
        <time>2014-06-03T11:46:26Z</time>
      </trkpt>
      <trkpt lat="41.62039" lon="9.29889">
        <ele>31.38</ele>
        <time>2014-06-03T11:46:33Z</time>
      </trkpt>
      <trkpt lat="41.62036" lon="9.29875">
        <ele>32.34</ele>
        <time>2014-06-03T11:46:50Z</time>
      </trkpt>
      <trkpt lat="41.62035" lon="9.29872">
        <ele>33.78</ele>
        <time>2014-06-03T11:47:23Z</time>
      </trkpt>
      <trkpt lat="41.62035" lon="9.29871">
        <ele>33.78</ele>
        <time>2014-06-03T11:47:28Z</time>
      </trkpt>
      <trkpt lat="41.62036" lon="9.29869">
        <ele>33.78</ele>
        <time>2014-06-03T11:47:29Z</time>
      </trkpt>
      <trkpt lat="41.62038" lon="9.29868">
        <ele>33.78</ele>
        <time>2014-06-03T11:47:30Z</time>
      </trkpt>
      <trkpt lat="41.62041" lon="9.29867">
        <ele>34.26</ele>
        <time>2014-06-03T11:47:31Z</time>
      </trkpt>
      <trkpt lat="41.62045" lon="9.29868">
        <ele>34.26</ele>
        <time>2014-06-03T11:47:32Z</time>
      </trkpt>
      <trkpt lat="41.6205" lon="9.29869">
        <ele>34.26</ele>
        <time>2014-06-03T11:47:33Z</time>
      </trkpt>
      <trkpt lat="41.62078" lon="9.29876">
        <ele>35.23</ele>
        <time>2014-06-03T11:47:37Z</time>
      </trkpt>
      <trkpt lat="41.62179" lon="9.29932">
        <ele>35.23</ele>
        <time>2014-06-03T11:47:48Z</time>
      </trkpt>
      <trkpt lat="41.623" lon="9.30004">
        <ele>30.9</ele>
        <time>2014-06-03T11:48:01Z</time>
      </trkpt>
      <trkpt lat="41.62364" lon="9.30042">
        <ele>28.02</ele>
        <time>2014-06-03T11:48:08Z</time>
      </trkpt>
      <trkpt lat="41.62373" lon="9.30044">
        <ele>28.02</ele>
        <time>2014-06-03T11:48:09Z</time>
      </trkpt>
      <trkpt lat="41.62383" lon="9.30045">
        <ele>28.02</ele>
        <time>2014-06-03T11:48:10Z</time>
      </trkpt>
      <trkpt lat="41.62393" lon="9.30044">
        <ele>27.53</ele>
        <time>2014-06-03T11:48:11Z</time>
      </trkpt>
      <trkpt lat="41.62403" lon="9.30043">
        <ele>27.53</ele>
        <time>2014-06-03T11:48:12Z</time>
      </trkpt>
      <trkpt lat="41.62421" lon="9.30041">
        <ele>27.53</ele>
        <time>2014-06-03T11:48:14Z</time>
      </trkpt>
      <trkpt lat="41.62428" lon="9.30037">
        <ele>28.5</ele>
        <time>2014-06-03T11:48:15Z</time>
      </trkpt>
      <trkpt lat="41.62435" lon="9.30031">
        <ele>28.02</ele>
        <time>2014-06-03T11:48:16Z</time>
      </trkpt>
      <trkpt lat="41.6244" lon="9.30025">
        <ele>28.02</ele>
        <time>2014-06-03T11:48:17Z</time>
      </trkpt>
      <trkpt lat="41.62445" lon="9.30018">
        <ele>28.02</ele>
        <time>2014-06-03T11:48:18Z</time>
      </trkpt>
      <trkpt lat="41.62454" lon="9.30008">
        <ele>30.9</ele>
        <time>2014-06-03T11:48:21Z</time>
      </trkpt>
      <trkpt lat="41.62464" lon="9.29996">
        <ele>30.9</ele>
        <time>2014-06-03T11:48:24Z</time>
      </trkpt>
      <trkpt lat="41.62466" lon="9.29989">
        <ele>29.46</ele>
        <time>2014-06-03T11:48:25Z</time>
      </trkpt>
      <trkpt lat="41.62466" lon="9.29981">
        <ele>28.5</ele>
        <time>2014-06-03T11:48:26Z</time>
      </trkpt>
      <trkpt lat="41.62463" lon="9.29972">
        <ele>27.05</ele>
        <time>2014-06-03T11:48:27Z</time>
      </trkpt>
      <trkpt lat="41.62461" lon="9.29963">
        <ele>26.57</ele>
        <time>2014-06-03T11:48:28Z</time>
      </trkpt>
      <trkpt lat="41.62458" lon="9.29937">
        <ele>24.65</ele>
        <time>2014-06-03T11:48:30Z</time>
      </trkpt>
      <trkpt lat="41.6245" lon="9.29803">
        <ele>26.57</ele>
        <time>2014-06-03T11:48:37Z</time>
      </trkpt>
      <trkpt lat="41.62429" lon="9.29686">
        <ele>32.82</ele>
        <time>2014-06-03T11:48:44Z</time>
      </trkpt>
      <trkpt lat="41.62417" lon="9.29611">
        <ele>39.07</ele>
        <time>2014-06-03T11:48:49Z</time>
      </trkpt>
      <trkpt lat="41.62413" lon="9.29598">
        <ele>40.51</ele>
        <time>2014-06-03T11:48:50Z</time>
      </trkpt>
      <trkpt lat="41.62407" lon="9.29587">
        <ele>41.47</ele>
        <time>2014-06-03T11:48:51Z</time>
      </trkpt>
      <trkpt lat="41.62399" lon="9.29578">
        <ele>42.44</ele>
        <time>2014-06-03T11:48:52Z</time>
      </trkpt>
      <trkpt lat="41.6239" lon="9.2957">
        <ele>42.44</ele>
        <time>2014-06-03T11:48:53Z</time>
      </trkpt>
      <trkpt lat="41.6238" lon="9.29562">
        <ele>42.92</ele>
        <time>2014-06-03T11:48:54Z</time>
      </trkpt>
      <trkpt lat="41.62368" lon="9.29555">
        <ele>44.36</ele>
        <time>2014-06-03T11:48:55Z</time>
      </trkpt>
      <trkpt lat="41.62329" lon="9.29529">
        <ele>47.72</ele>
        <time>2014-06-03T11:48:58Z</time>
      </trkpt>
      <trkpt lat="41.62317" lon="9.29517">
        <ele>48.68</ele>
        <time>2014-06-03T11:48:59Z</time>
      </trkpt>
      <trkpt lat="41.62306" lon="9.29504">
        <ele>49.65</ele>
        <time>2014-06-03T11:49:00Z</time>
      </trkpt>
      <trkpt lat="41.62296" lon="9.29489">
        <ele>51.09</ele>
        <time>2014-06-03T11:49:01Z</time>
      </trkpt>
      <trkpt lat="41.62288" lon="9.29473">
        <ele>52.53</ele>
        <time>2014-06-03T11:49:02Z</time>
      </trkpt>
      <trkpt lat="41.6228" lon="9.29457">
        <ele>53.97</ele>
        <time>2014-06-03T11:49:03Z</time>
      </trkpt>
      <trkpt lat="41.62273" lon="9.2944">
        <ele>56.37</ele>
        <time>2014-06-03T11:49:04Z</time>
      </trkpt>
      <trkpt lat="41.62268" lon="9.29422">
        <ele>58.3</ele>
        <time>2014-06-03T11:49:05Z</time>
      </trkpt>
      <trkpt lat="41.62264" lon="9.29403">
        <ele>59.74</ele>
        <time>2014-06-03T11:49:06Z</time>
      </trkpt>
      <trkpt lat="41.62261" lon="9.29385">
        <ele>61.66</ele>
        <time>2014-06-03T11:49:07Z</time>
      </trkpt>
      <trkpt lat="41.6226" lon="9.29365">
        <ele>62.62</ele>
        <time>2014-06-03T11:49:08Z</time>
      </trkpt>
      <trkpt lat="41.6226" lon="9.29346">
        <ele>64.55</ele>
        <time>2014-06-03T11:49:09Z</time>
      </trkpt>
      <trkpt lat="41.62261" lon="9.29328">
        <ele>66.95</ele>
        <time>2014-06-03T11:49:10Z</time>
      </trkpt>
      <trkpt lat="41.62264" lon="9.29309">
        <ele>68.39</ele>
        <time>2014-06-03T11:49:11Z</time>
      </trkpt>
      <trkpt lat="41.6227" lon="9.29289">
        <ele>69.83</ele>
        <time>2014-06-03T11:49:12Z</time>
      </trkpt>
      <trkpt lat="41.62276" lon="9.29268">
        <ele>71.27</ele>
        <time>2014-06-03T11:49:13Z</time>
      </trkpt>
      <trkpt lat="41.62328" lon="9.2911">
        <ele>79.45</ele>
        <time>2014-06-03T11:49:21Z</time>
      </trkpt>
      <trkpt lat="41.62383" lon="9.28985">
        <ele>78.48</ele>
        <time>2014-06-03T11:49:30Z</time>
      </trkpt>
      <trkpt lat="41.62399" lon="9.28955">
        <ele>75.6</ele>
        <time>2014-06-03T11:49:36Z</time>
      </trkpt>
      <trkpt lat="41.62408" lon="9.28942">
        <ele>75.12</ele>
        <time>2014-06-03T11:49:39Z</time>
      </trkpt>
      <trkpt lat="41.6241" lon="9.28936">
        <ele>75.12</ele>
        <time>2014-06-03T11:49:40Z</time>
      </trkpt>
      <trkpt lat="41.62409" lon="9.28929">
        <ele>75.12</ele>
        <time>2014-06-03T11:49:41Z</time>
      </trkpt>
      <trkpt lat="41.62406" lon="9.28923">
        <ele>74.16</ele>
        <time>2014-06-03T11:49:42Z</time>
      </trkpt>
      <trkpt lat="41.62401" lon="9.28918">
        <ele>73.2</ele>
        <time>2014-06-03T11:49:43Z</time>
      </trkpt>
      <trkpt lat="41.62394" lon="9.28912">
        <ele>72.72</ele>
        <time>2014-06-03T11:49:44Z</time>
      </trkpt>
      <trkpt lat="41.62377" lon="9.28895">
        <ele>70.79</ele>
        <time>2014-06-03T11:49:46Z</time>
      </trkpt>
      <trkpt lat="41.62304" lon="9.28813">
        <ele>66.47</ele>
        <time>2014-06-03T11:49:53Z</time>
      </trkpt>
      <trkpt lat="41.62296" lon="9.28798">
        <ele>65.99</ele>
        <time>2014-06-03T11:49:54Z</time>
      </trkpt>
      <trkpt lat="41.62289" lon="9.2878">
        <ele>65.51</ele>
        <time>2014-06-03T11:49:55Z</time>
      </trkpt>
      <trkpt lat="41.62286" lon="9.28762">
        <ele>64.07</ele>
        <time>2014-06-03T11:49:56Z</time>
      </trkpt>
      <trkpt lat="41.62284" lon="9.28743">
        <ele>63.58</ele>
        <time>2014-06-03T11:49:57Z</time>
      </trkpt>
      <trkpt lat="41.62285" lon="9.28723">
        <ele>63.1</ele>
        <time>2014-06-03T11:49:58Z</time>
      </trkpt>
      <trkpt lat="41.62287" lon="9.28703">
        <ele>62.14</ele>
        <time>2014-06-03T11:49:59Z</time>
      </trkpt>
      <trkpt lat="41.62291" lon="9.28684">
        <ele>61.18</ele>
        <time>2014-06-03T11:50:00Z</time>
      </trkpt>
      <trkpt lat="41.62296" lon="9.28663">
        <ele>60.22</ele>
        <time>2014-06-03T11:50:01Z</time>
      </trkpt>
      <trkpt lat="41.62315" lon="9.2858">
        <ele>54.93</ele>
        <time>2014-06-03T11:50:05Z</time>
      </trkpt>
      <trkpt lat="41.62315" lon="9.28561">
        <ele>53.97</ele>
        <time>2014-06-03T11:50:06Z</time>
      </trkpt>
      <trkpt lat="41.62313" lon="9.28543">
        <ele>53.49</ele>
        <time>2014-06-03T11:50:07Z</time>
      </trkpt>
      <trkpt lat="41.62307" lon="9.28526">
        <ele>53.01</ele>
        <time>2014-06-03T11:50:08Z</time>
      </trkpt>
      <trkpt lat="41.623" lon="9.28509">
        <ele>52.53</ele>
        <time>2014-06-03T11:50:09Z</time>
      </trkpt>
      <trkpt lat="41.6229" lon="9.28495">
        <ele>52.05</ele>
        <time>2014-06-03T11:50:10Z</time>
      </trkpt>
      <trkpt lat="41.62279" lon="9.28483">
        <ele>52.53</ele>
        <time>2014-06-03T11:50:11Z</time>
      </trkpt>
      <trkpt lat="41.62265" lon="9.28473">
        <ele>51.57</ele>
        <time>2014-06-03T11:50:12Z</time>
      </trkpt>
      <trkpt lat="41.62251" lon="9.28463">
        <ele>50.61</ele>
        <time>2014-06-03T11:50:13Z</time>
      </trkpt>
      <trkpt lat="41.62041" lon="9.28331">
        <ele>38.59</ele>
        <time>2014-06-03T11:50:27Z</time>
      </trkpt>
      <trkpt lat="41.61834" lon="9.28201">
        <ele>31.86</ele>
        <time>2014-06-03T11:50:41Z</time>
      </trkpt>
      <trkpt lat="41.61584" lon="9.28042">
        <ele>28.02</ele>
        <time>2014-06-03T11:50:58Z</time>
      </trkpt>
      <trkpt lat="41.61465" lon="9.27992">
        <ele>26.09</ele>
        <time>2014-06-03T11:51:07Z</time>
      </trkpt>
      <trkpt lat="41.61259" lon="9.27938">
        <ele>18.88</ele>
        <time>2014-06-03T11:51:24Z</time>
      </trkpt>
      <trkpt lat="41.61071" lon="9.27887">
        <ele>10.71</ele>
        <time>2014-06-03T11:51:39Z</time>
      </trkpt>
      <trkpt lat="41.60945" lon="9.27851">
        <ele>9.75</ele>
        <time>2014-06-03T11:51:50Z</time>
      </trkpt>
      <trkpt lat="41.60803" lon="9.27812">
        <ele>12.15</ele>
        <time>2014-06-03T11:52:04Z</time>
      </trkpt>
      <trkpt lat="41.60641" lon="9.27769">
        <ele>11.19</ele>
        <time>2014-06-03T11:52:19Z</time>
      </trkpt>
      <trkpt lat="41.60591" lon="9.27742">
        <ele>11.67</ele>
        <time>2014-06-03T11:52:26Z</time>
      </trkpt>
      <trkpt lat="41.60587" lon="9.27739">
        <ele>11.19</ele>
        <time>2014-06-03T11:52:27Z</time>
      </trkpt>
      <trkpt lat="41.60582" lon="9.27735">
        <ele>11.67</ele>
        <time>2014-06-03T11:52:28Z</time>
      </trkpt>
      <trkpt lat="41.60578" lon="9.27729">
        <ele>12.63</ele>
        <time>2014-06-03T11:52:29Z</time>
      </trkpt>
      <trkpt lat="41.60575" lon="9.27721">
        <ele>13.12</ele>
        <time>2014-06-03T11:52:30Z</time>
      </trkpt>
      <trkpt lat="41.60572" lon="9.27713">
        <ele>13.6</ele>
        <time>2014-06-03T11:52:31Z</time>
      </trkpt>
      <trkpt lat="41.60564" lon="9.27698">
        <ele>14.08</ele>
        <time>2014-06-03T11:52:33Z</time>
      </trkpt>
      <trkpt lat="41.60559" lon="9.27693">
        <ele>13.6</ele>
        <time>2014-06-03T11:52:34Z</time>
      </trkpt>
      <trkpt lat="41.60552" lon="9.27691">
        <ele>13.6</ele>
        <time>2014-06-03T11:52:35Z</time>
      </trkpt>
      <trkpt lat="41.60545" lon="9.27691">
        <ele>13.6</ele>
        <time>2014-06-03T11:52:36Z</time>
      </trkpt>
      <trkpt lat="41.60538" lon="9.27694">
        <ele>13.12</ele>
        <time>2014-06-03T11:52:37Z</time>
      </trkpt>
      <trkpt lat="41.60531" lon="9.277">
        <ele>13.12</ele>
        <time>2014-06-03T11:52:38Z</time>
      </trkpt>
      <trkpt lat="41.60525" lon="9.27708">
        <ele>13.12</ele>
        <time>2014-06-03T11:52:39Z</time>
      </trkpt>
      <trkpt lat="41.60518" lon="9.27714">
        <ele>13.12</ele>
        <time>2014-06-03T11:52:40Z</time>
      </trkpt>
      <trkpt lat="41.60503" lon="9.2772">
        <ele>11.67</ele>
        <time>2014-06-03T11:52:42Z</time>
      </trkpt>
      <trkpt lat="41.60496" lon="9.27722">
        <ele>11.19</ele>
        <time>2014-06-03T11:52:43Z</time>
      </trkpt>
      <trkpt lat="41.60488" lon="9.27723">
        <ele>11.67</ele>
        <time>2014-06-03T11:52:44Z</time>
      </trkpt>
      <trkpt lat="41.60481" lon="9.27723">
        <ele>12.63</ele>
        <time>2014-06-03T11:52:45Z</time>
      </trkpt>
      <trkpt lat="41.60476" lon="9.27722">
        <ele>13.12</ele>
        <time>2014-06-03T11:52:46Z</time>
      </trkpt>
      <trkpt lat="41.60418" lon="9.27701">
        <ele>16.48</ele>
        <time>2014-06-03T11:52:59Z</time>
      </trkpt>
      <trkpt lat="41.60355" lon="9.27682">
        <ele>17.92</ele>
        <time>2014-06-03T11:53:07Z</time>
      </trkpt>
      <trkpt lat="41.60279" lon="9.27665">
        <ele>21.29</ele>
        <time>2014-06-03T11:53:18Z</time>
      </trkpt>
      <trkpt lat="41.60191" lon="9.27639">
        <ele>22.73</ele>
        <time>2014-06-03T11:53:27Z</time>
      </trkpt>
      <trkpt lat="41.6004" lon="9.27596">
        <ele>25.61</ele>
        <time>2014-06-03T11:53:39Z</time>
      </trkpt>
      <trkpt lat="41.59957" lon="9.27573">
        <ele>24.17</ele>
        <time>2014-06-03T11:53:48Z</time>
      </trkpt>
      <trkpt lat="41.5993" lon="9.27558">
        <ele>23.69</ele>
        <time>2014-06-03T11:53:54Z</time>
      </trkpt>
      <trkpt lat="41.59929" lon="9.27553">
        <ele>23.21</ele>
        <time>2014-06-03T11:53:55Z</time>
      </trkpt>
      <trkpt lat="41.59929" lon="9.27547">
        <ele>23.69</ele>
        <time>2014-06-03T11:53:56Z</time>
      </trkpt>
      <trkpt lat="41.5993" lon="9.2754">
        <ele>23.21</ele>
        <time>2014-06-03T11:53:57Z</time>
      </trkpt>
      <trkpt lat="41.59931" lon="9.27494">
        <ele>20.32</ele>
        <time>2014-06-03T11:54:07Z</time>
      </trkpt>
      <trkpt lat="41.5993" lon="9.27493">
        <ele>18.88</ele>
        <time>2014-06-03T11:54:22Z</time>
      </trkpt>
      <trkpt lat="41.59929" lon="9.27493">
        <ele>18.88</ele>
        <time>2014-06-03T11:54:26Z</time>
      </trkpt>
      <trkpt lat="41.59927" lon="9.27495">
        <ele>18.4</ele>
        <time>2014-06-03T11:54:27Z</time>
      </trkpt>
      <trkpt lat="41.59925" lon="9.27499">
        <ele>18.4</ele>
        <time>2014-06-03T11:54:28Z</time>
      </trkpt>
      <trkpt lat="41.59923" lon="9.27504">
        <ele>18.88</ele>
        <time>2014-06-03T11:54:29Z</time>
      </trkpt>
      <trkpt lat="41.59922" lon="9.27508">
        <ele>18.88</ele>
        <time>2014-06-03T11:54:30Z</time>
      </trkpt>
      <trkpt lat="41.5992" lon="9.27515">
        <ele>17.92</ele>
        <time>2014-06-03T11:54:33Z</time>
      </trkpt>
      <trkpt lat="41.59918" lon="9.27516">
        <ele>17.44</ele>
        <time>2014-06-03T11:54:34Z</time>
      </trkpt>
      <trkpt lat="41.59916" lon="9.27517">
        <ele>17.44</ele>
        <time>2014-06-03T11:54:35Z</time>
      </trkpt>
      <trkpt lat="41.59914" lon="9.27517">
        <ele>17.44</ele>
        <time>2014-06-03T11:54:36Z</time>
      </trkpt>
      <trkpt lat="41.59912" lon="9.27516">
        <ele>17.44</ele>
        <time>2014-06-03T11:54:37Z</time>
      </trkpt>
      <trkpt lat="41.5991" lon="9.27513">
        <ele>17.44</ele>
        <time>2014-06-03T11:54:38Z</time>
      </trkpt>
      <trkpt lat="41.59908" lon="9.27511">
        <ele>17.44</ele>
        <time>2014-06-03T11:54:39Z</time>
      </trkpt>
      <trkpt lat="41.59905" lon="9.27508">
        <ele>17.92</ele>
        <time>2014-06-03T11:54:41Z</time>
      </trkpt>
      <trkpt lat="41.599" lon="9.27511">
        <ele>17.92</ele>
        <time>2014-06-03T11:54:50Z</time>
      </trkpt>
      <trkpt lat="41.59896" lon="9.2751">
        <ele>17.92</ele>
        <time>2014-06-03T11:55:26Z</time>
      </trkpt>
      <trkpt lat="41.59877" lon="9.27506">
        <ele>19.36</ele>
        <time>2014-06-03T11:55:49Z</time>
      </trkpt>
      <trkpt lat="41.59852" lon="9.27518">
        <ele>20.32</ele>
        <time>2014-06-03T11:56:30Z</time>
      </trkpt>
      <trkpt lat="41.59852" lon="9.27519">
        <ele>20.32</ele>
        <time>2014-06-03T11:56:34Z</time>
      </trkpt>
      <trkpt lat="41.59884" lon="9.27488">
        <ele>58.78</ele>
        <time>2014-06-03T11:58:23Z</time>
      </trkpt>
      <trkpt lat="41.59883" lon="9.27511">
        <ele>33.3</ele>
        <time>2014-06-03T11:58:35Z</time>
      </trkpt>
      <trkpt lat="41.59889" lon="9.27514">
        <ele>35.71</ele>
        <time>2014-06-03T11:58:42Z</time>
      </trkpt>
      <trkpt lat="41.59899" lon="9.27517">
        <ele>30.9</ele>
        <time>2014-06-03T11:59:02Z</time>
      </trkpt>
      <trkpt lat="41.59897" lon="9.27516">
        <ele>33.78</ele>
        <time>2014-06-03T11:59:30Z</time>
      </trkpt>
      <trkpt lat="41.59899" lon="9.27497">
        <ele>35.23</ele>
        <time>2014-06-03T12:00:09Z</time>
      </trkpt>
      <trkpt lat="41.599" lon="9.27497">
        <ele>33.3</ele>
        <time>2014-06-03T12:00:40Z</time>
      </trkpt>
      <trkpt lat="41.59898" lon="9.27502">
        <ele>35.71</ele>
        <time>2014-06-03T12:01:15Z</time>
      </trkpt>
      <trkpt lat="41.59896" lon="9.27502">
        <ele>34.74</ele>
        <time>2014-06-03T12:01:44Z</time>
      </trkpt>
      <trkpt lat="41.59921" lon="9.27516">
        <ele>20.81</ele>
        <time>2014-06-03T12:01:55Z</time>
      </trkpt>
      <trkpt lat="41.59923" lon="9.27534">
        <ele>18.4</ele>
        <time>2014-06-03T12:01:59Z</time>
      </trkpt>
      <trkpt lat="41.59911" lon="9.2756">
        <ele>15.52</ele>
        <time>2014-06-03T12:02:07Z</time>
      </trkpt>
      <trkpt lat="41.59907" lon="9.27561">
        <ele>15.52</ele>
        <time>2014-06-03T12:02:08Z</time>
      </trkpt>
      <trkpt lat="41.59901" lon="9.2756">
        <ele>15.52</ele>
        <time>2014-06-03T12:02:09Z</time>
      </trkpt>
      <trkpt lat="41.59894" lon="9.27558">
        <ele>15.52</ele>
        <time>2014-06-03T12:02:10Z</time>
      </trkpt>
      <trkpt lat="41.59887" lon="9.27554">
        <ele>15.52</ele>
        <time>2014-06-03T12:02:11Z</time>
      </trkpt>
      <trkpt lat="41.59819" lon="9.27535">
        <ele>20.81</ele>
        <time>2014-06-03T12:02:20Z</time>
      </trkpt>
      <trkpt lat="41.59792" lon="9.27528">
        <ele>16.96</ele>
        <time>2014-06-03T12:02:30Z</time>
      </trkpt>
      <trkpt lat="41.59785" lon="9.27526">
        <ele>16</ele>
        <time>2014-06-03T12:02:32Z</time>
      </trkpt>
      <trkpt lat="41.59781" lon="9.27524">
        <ele>15.52</ele>
        <time>2014-06-03T12:02:33Z</time>
      </trkpt>
      <trkpt lat="41.59768" lon="9.27515">
        <ele>14.08</ele>
        <time>2014-06-03T12:02:36Z</time>
      </trkpt>
      <trkpt lat="41.59763" lon="9.27514">
        <ele>13.6</ele>
        <time>2014-06-03T12:02:37Z</time>
      </trkpt>
      <trkpt lat="41.59758" lon="9.27516">
        <ele>13.6</ele>
        <time>2014-06-03T12:02:38Z</time>
      </trkpt>
      <trkpt lat="41.59755" lon="9.2752">
        <ele>12.63</ele>
        <time>2014-06-03T12:02:39Z</time>
      </trkpt>
      <trkpt lat="41.59752" lon="9.27524">
        <ele>12.63</ele>
        <time>2014-06-03T12:02:40Z</time>
      </trkpt>
      <trkpt lat="41.5975" lon="9.27529">
        <ele>12.15</ele>
        <time>2014-06-03T12:02:41Z</time>
      </trkpt>
      <trkpt lat="41.59749" lon="9.27533">
        <ele>11.67</ele>
        <time>2014-06-03T12:02:42Z</time>
      </trkpt>
      <trkpt lat="41.59739" lon="9.2755">
        <ele>12.15</ele>
        <time>2014-06-03T12:02:47Z</time>
      </trkpt>
      <trkpt lat="41.59736" lon="9.27553">
        <ele>11.67</ele>
        <time>2014-06-03T12:02:48Z</time>
      </trkpt>
      <trkpt lat="41.59698" lon="9.27601">
        <ele>7.35</ele>
        <time>2014-06-03T12:02:57Z</time>
      </trkpt>
      <trkpt lat="41.59617" lon="9.27717">
        <ele>5.91</ele>
        <time>2014-06-03T12:03:08Z</time>
      </trkpt>
      <trkpt lat="41.59595" lon="9.27754">
        <ele>4.94</ele>
        <time>2014-06-03T12:03:11Z</time>
      </trkpt>
      <trkpt lat="41.5959" lon="9.27768">
        <ele>4.46</ele>
        <time>2014-06-03T12:03:12Z</time>
      </trkpt>
      <trkpt lat="41.59587" lon="9.27784">
        <ele>3.98</ele>
        <time>2014-06-03T12:03:13Z</time>
      </trkpt>
      <trkpt lat="41.59587" lon="9.27799">
        <ele>3.5</ele>
        <time>2014-06-03T12:03:14Z</time>
      </trkpt>
      <trkpt lat="41.59587" lon="9.27814">
        <ele>2.54</ele>
        <time>2014-06-03T12:03:15Z</time>
      </trkpt>
      <trkpt lat="41.59589" lon="9.27829">
        <ele>2.06</ele>
        <time>2014-06-03T12:03:16Z</time>
      </trkpt>
      <trkpt lat="41.59591" lon="9.27844">
        <ele>2.06</ele>
        <time>2014-06-03T12:03:17Z</time>
      </trkpt>
      <trkpt lat="41.59595" lon="9.27858">
        <ele>1.58</ele>
        <time>2014-06-03T12:03:18Z</time>
      </trkpt>
      <trkpt lat="41.59599" lon="9.27871">
        <ele>1.58</ele>
        <time>2014-06-03T12:03:19Z</time>
      </trkpt>
      <trkpt lat="41.5961" lon="9.27905">
        <ele>0.62</ele>
        <time>2014-06-03T12:03:22Z</time>
      </trkpt>
      <trkpt lat="41.59611" lon="9.27916">
        <ele>0.62</ele>
        <time>2014-06-03T12:03:23Z</time>
      </trkpt>
      <trkpt lat="41.59615" lon="9.27936">
        <ele>1.1</ele>
        <time>2014-06-03T12:03:25Z</time>
      </trkpt>
      <trkpt lat="41.59621" lon="9.27944">
        <ele>0.14</ele>
        <time>2014-06-03T12:03:26Z</time>
      </trkpt>
      <trkpt lat="41.59638" lon="9.27974">
        <ele>-0.82</ele>
        <time>2014-06-03T12:03:29Z</time>
      </trkpt>
      <trkpt lat="41.59666" lon="9.28058">
        <ele>-2.27</ele>
        <time>2014-06-03T12:03:35Z</time>
      </trkpt>
      <trkpt lat="41.59669" lon="9.28073">
        <ele>-2.75</ele>
        <time>2014-06-03T12:03:36Z</time>
      </trkpt>
      <trkpt lat="41.59671" lon="9.28088">
        <ele>-2.75</ele>
        <time>2014-06-03T12:03:37Z</time>
      </trkpt>
      <trkpt lat="41.59673" lon="9.28104">
        <ele>-1.79</ele>
        <time>2014-06-03T12:03:38Z</time>
      </trkpt>
      <trkpt lat="41.59672" lon="9.28121">
        <ele>-2.27</ele>
        <time>2014-06-03T12:03:39Z</time>
      </trkpt>
      <trkpt lat="41.5967" lon="9.28138">
        <ele>-2.75</ele>
        <time>2014-06-03T12:03:40Z</time>
      </trkpt>
      <trkpt lat="41.59665" lon="9.28155">
        <ele>-2.75</ele>
        <time>2014-06-03T12:03:41Z</time>
      </trkpt>
      <trkpt lat="41.5966" lon="9.28171">
        <ele>-2.27</ele>
        <time>2014-06-03T12:03:42Z</time>
      </trkpt>
      <trkpt lat="41.59654" lon="9.28187">
        <ele>-3.71</ele>
        <time>2014-06-03T12:03:43Z</time>
      </trkpt>
      <trkpt lat="41.59647" lon="9.28203">
        <ele>-3.23</ele>
        <time>2014-06-03T12:03:44Z</time>
      </trkpt>
      <trkpt lat="41.59564" lon="9.28382">
        <ele>1.1</ele>
        <time>2014-06-03T12:03:56Z</time>
      </trkpt>
      <trkpt lat="41.59556" lon="9.28391">
        <ele>1.58</ele>
        <time>2014-06-03T12:03:57Z</time>
      </trkpt>
      <trkpt lat="41.59546" lon="9.28399">
        <ele>1.58</ele>
        <time>2014-06-03T12:03:58Z</time>
      </trkpt>
      <trkpt lat="41.59534" lon="9.28405">
        <ele>1.58</ele>
        <time>2014-06-03T12:03:59Z</time>
      </trkpt>
      <trkpt lat="41.59522" lon="9.28409">
        <ele>1.58</ele>
        <time>2014-06-03T12:04:00Z</time>
      </trkpt>
      <trkpt lat="41.5951" lon="9.28411">
        <ele>1.58</ele>
        <time>2014-06-03T12:04:01Z</time>
      </trkpt>
      <trkpt lat="41.59497" lon="9.28412">
        <ele>1.58</ele>
        <time>2014-06-03T12:04:02Z</time>
      </trkpt>
      <trkpt lat="41.59485" lon="9.28409">
        <ele>1.58</ele>
        <time>2014-06-03T12:04:03Z</time>
      </trkpt>
      <trkpt lat="41.59329" lon="9.28398">
        <ele>2.06</ele>
        <time>2014-06-03T12:04:15Z</time>
      </trkpt>
      <trkpt lat="41.59224" lon="9.28363">
        <ele>4.46</ele>
        <time>2014-06-03T12:04:24Z</time>
      </trkpt>
      <trkpt lat="41.59123" lon="9.28334">
        <ele>0.62</ele>
        <time>2014-06-03T12:04:33Z</time>
      </trkpt>
      <trkpt lat="41.59114" lon="9.28329">
        <ele>0.62</ele>
        <time>2014-06-03T12:04:34Z</time>
      </trkpt>
      <trkpt lat="41.59107" lon="9.28323">
        <ele>0.14</ele>
        <time>2014-06-03T12:04:35Z</time>
      </trkpt>
      <trkpt lat="41.59099" lon="9.28315">
        <ele>-0.34</ele>
        <time>2014-06-03T12:04:36Z</time>
      </trkpt>
      <trkpt lat="41.59092" lon="9.28308">
        <ele>0.62</ele>
        <time>2014-06-03T12:04:37Z</time>
      </trkpt>
      <trkpt lat="41.59073" lon="9.28287">
        <ele>2.54</ele>
        <time>2014-06-03T12:04:40Z</time>
      </trkpt>
      <trkpt lat="41.59068" lon="9.28283">
        <ele>2.54</ele>
        <time>2014-06-03T12:04:41Z</time>
      </trkpt>
      <trkpt lat="41.59062" lon="9.2828">
        <ele>3.02</ele>
        <time>2014-06-03T12:04:42Z</time>
      </trkpt>
      <trkpt lat="41.59057" lon="9.28278">
        <ele>3.5</ele>
        <time>2014-06-03T12:04:43Z</time>
      </trkpt>
      <trkpt lat="41.59052" lon="9.28277">
        <ele>3.02</ele>
        <time>2014-06-03T12:04:44Z</time>
      </trkpt>
      <trkpt lat="41.59046" lon="9.28276">
        <ele>3.5</ele>
        <time>2014-06-03T12:04:45Z</time>
      </trkpt>
      <trkpt lat="41.5904" lon="9.28275">
        <ele>3.98</ele>
        <time>2014-06-03T12:04:46Z</time>
      </trkpt>
      <trkpt lat="41.59034" lon="9.28275">
        <ele>4.46</ele>
        <time>2014-06-03T12:04:47Z</time>
      </trkpt>
      <trkpt lat="41.59027" lon="9.28278">
        <ele>4.46</ele>
        <time>2014-06-03T12:04:48Z</time>
      </trkpt>
      <trkpt lat="41.59022" lon="9.28281">
        <ele>4.94</ele>
        <time>2014-06-03T12:04:49Z</time>
      </trkpt>
      <trkpt lat="41.59015" lon="9.28284">
        <ele>6.39</ele>
        <time>2014-06-03T12:04:56Z</time>
      </trkpt>
      <trkpt lat="41.5901" lon="9.28285">
        <ele>6.87</ele>
        <time>2014-06-03T12:04:59Z</time>
      </trkpt>
      <trkpt lat="41.59001" lon="9.28289">
        <ele>6.39</ele>
        <time>2014-06-03T12:05:01Z</time>
      </trkpt>
      <trkpt lat="41.58997" lon="9.28292">
        <ele>6.87</ele>
        <time>2014-06-03T12:05:02Z</time>
      </trkpt>
      <trkpt lat="41.58994" lon="9.28295">
        <ele>6.39</ele>
        <time>2014-06-03T12:05:03Z</time>
      </trkpt>
      <trkpt lat="41.58957" lon="9.28338">
        <ele>4.94</ele>
        <time>2014-06-03T12:05:13Z</time>
      </trkpt>
      <trkpt lat="41.58901" lon="9.28394">
        <ele>4.94</ele>
        <time>2014-06-03T12:05:25Z</time>
      </trkpt>
      <trkpt lat="41.58888" lon="9.28408">
        <ele>7.83</ele>
        <time>2014-06-03T12:05:31Z</time>
      </trkpt>
      <trkpt lat="41.58883" lon="9.28408">
        <ele>7.35</ele>
        <time>2014-06-03T12:05:32Z</time>
      </trkpt>
      <trkpt lat="41.58878" lon="9.28405">
        <ele>6.39</ele>
        <time>2014-06-03T12:05:33Z</time>
      </trkpt>
      <trkpt lat="41.5886" lon="9.28394">
        <ele>6.39</ele>
        <time>2014-06-03T12:05:36Z</time>
      </trkpt>
      <trkpt lat="41.58795" lon="9.28312">
        <ele>5.91</ele>
        <time>2014-06-03T12:05:45Z</time>
      </trkpt>
      <trkpt lat="41.58746" lon="9.28252">
        <ele>8.79</ele>
        <time>2014-06-03T12:05:51Z</time>
      </trkpt>
      <trkpt lat="41.58737" lon="9.28246">
        <ele>8.79</ele>
        <time>2014-06-03T12:05:52Z</time>
      </trkpt>
      <trkpt lat="41.58727" lon="9.28243">
        <ele>8.79</ele>
        <time>2014-06-03T12:05:53Z</time>
      </trkpt>
      <trkpt lat="41.58717" lon="9.28243">
        <ele>8.79</ele>
        <time>2014-06-03T12:05:54Z</time>
      </trkpt>
      <trkpt lat="41.58705" lon="9.28245">
        <ele>8.79</ele>
        <time>2014-06-03T12:05:55Z</time>
      </trkpt>
      <trkpt lat="41.58681" lon="9.28247">
        <ele>9.27</ele>
        <time>2014-06-03T12:05:57Z</time>
      </trkpt>
      <trkpt lat="41.58669" lon="9.28246">
        <ele>9.27</ele>
        <time>2014-06-03T12:05:58Z</time>
      </trkpt>
      <trkpt lat="41.58656" lon="9.28244">
        <ele>8.79</ele>
        <time>2014-06-03T12:05:59Z</time>
      </trkpt>
      <trkpt lat="41.58555" lon="9.28177">
        <ele>6.87</ele>
        <time>2014-06-03T12:06:08Z</time>
      </trkpt>
      <trkpt lat="41.58389" lon="9.28032">
        <ele>10.71</ele>
        <time>2014-06-03T12:06:23Z</time>
      </trkpt>
      <trkpt lat="41.58234" lon="9.27822">
        <ele>8.31</ele>
        <time>2014-06-03T12:06:39Z</time>
      </trkpt>
      <trkpt lat="41.58144" lon="9.277">
        <ele>4.46</ele>
        <time>2014-06-03T12:06:48Z</time>
      </trkpt>
      <trkpt lat="41.58083" lon="9.27621">
        <ele>4.94</ele>
        <time>2014-06-03T12:06:56Z</time>
      </trkpt>
      <trkpt lat="41.58068" lon="9.27601">
        <ele>6.87</ele>
        <time>2014-06-03T12:07:03Z</time>
      </trkpt>
      <trkpt lat="41.5805" lon="9.27575">
        <ele>11.67</ele>
        <time>2014-06-03T12:07:14Z</time>
      </trkpt>
      <trkpt lat="41.58041" lon="9.27555">
        <ele>13.6</ele>
        <time>2014-06-03T12:07:21Z</time>
      </trkpt>
      <trkpt lat="41.58038" lon="9.27549">
        <ele>13.6</ele>
        <time>2014-06-03T12:07:22Z</time>
      </trkpt>
      <trkpt lat="41.58033" lon="9.27544">
        <ele>13.12</ele>
        <time>2014-06-03T12:07:23Z</time>
      </trkpt>
      <trkpt lat="41.58028" lon="9.2754">
        <ele>13.12</ele>
        <time>2014-06-03T12:07:24Z</time>
      </trkpt>
      <trkpt lat="41.58021" lon="9.27538">
        <ele>13.12</ele>
        <time>2014-06-03T12:07:25Z</time>
      </trkpt>
      <trkpt lat="41.58015" lon="9.27537">
        <ele>13.12</ele>
        <time>2014-06-03T12:07:26Z</time>
      </trkpt>
      <trkpt lat="41.58008" lon="9.27538">
        <ele>12.15</ele>
        <time>2014-06-03T12:07:32Z</time>
      </trkpt>
      <trkpt lat="41.57993" lon="9.27538">
        <ele>11.67</ele>
        <time>2014-06-03T12:07:50Z</time>
      </trkpt>
      <trkpt lat="41.57988" lon="9.27535">
        <ele>11.19</ele>
        <time>2014-06-03T12:07:51Z</time>
      </trkpt>
      <trkpt lat="41.57964" lon="9.27528">
        <ele>11.67</ele>
        <time>2014-06-03T12:07:54Z</time>
      </trkpt>
      <trkpt lat="41.57862" lon="9.27514">
        <ele>8.31</ele>
        <time>2014-06-03T12:08:03Z</time>
      </trkpt>
      <trkpt lat="41.578" lon="9.27504">
        <ele>9.27</ele>
        <time>2014-06-03T12:08:09Z</time>
      </trkpt>
      <trkpt lat="41.57792" lon="9.27501">
        <ele>8.79</ele>
        <time>2014-06-03T12:08:10Z</time>
      </trkpt>
      <trkpt lat="41.57784" lon="9.27497">
        <ele>8.79</ele>
        <time>2014-06-03T12:08:11Z</time>
      </trkpt>
      <trkpt lat="41.57777" lon="9.27491">
        <ele>8.31</ele>
        <time>2014-06-03T12:08:12Z</time>
      </trkpt>
      <trkpt lat="41.57769" lon="9.27484">
        <ele>8.79</ele>
        <time>2014-06-03T12:08:13Z</time>
      </trkpt>
      <trkpt lat="41.57764" lon="9.27475">
        <ele>8.31</ele>
        <time>2014-06-03T12:08:14Z</time>
      </trkpt>
      <trkpt lat="41.57758" lon="9.27466">
        <ele>7.83</ele>
        <time>2014-06-03T12:08:15Z</time>
      </trkpt>
      <trkpt lat="41.57751" lon="9.27459">
        <ele>7.83</ele>
        <time>2014-06-03T12:08:16Z</time>
      </trkpt>
      <trkpt lat="41.57742" lon="9.27455">
        <ele>7.83</ele>
        <time>2014-06-03T12:08:17Z</time>
      </trkpt>
      <trkpt lat="41.57732" lon="9.27456">
        <ele>7.83</ele>
        <time>2014-06-03T12:08:18Z</time>
      </trkpt>
      <trkpt lat="41.57722" lon="9.27461">
        <ele>7.83</ele>
        <time>2014-06-03T12:08:19Z</time>
      </trkpt>
      <trkpt lat="41.57712" lon="9.27467">
        <ele>7.83</ele>
        <time>2014-06-03T12:08:20Z</time>
      </trkpt>
      <trkpt lat="41.5769" lon="9.27475">
        <ele>6.39</ele>
        <time>2014-06-03T12:08:22Z</time>
      </trkpt>
      <trkpt lat="41.57678" lon="9.27477">
        <ele>4.94</ele>
        <time>2014-06-03T12:08:23Z</time>
      </trkpt>
      <trkpt lat="41.57664" lon="9.27477">
        <ele>6.39</ele>
        <time>2014-06-03T12:08:24Z</time>
      </trkpt>
      <trkpt lat="41.57649" lon="9.27475">
        <ele>6.39</ele>
        <time>2014-06-03T12:08:25Z</time>
      </trkpt>
      <trkpt lat="41.57633" lon="9.27473">
        <ele>6.39</ele>
        <time>2014-06-03T12:08:26Z</time>
      </trkpt>
      <trkpt lat="41.57488" lon="9.27452">
        <ele>8.79</ele>
        <time>2014-06-03T12:08:33Z</time>
      </trkpt>
      <trkpt lat="41.57334" lon="9.27434">
        <ele>6.87</ele>
        <time>2014-06-03T12:08:41Z</time>
      </trkpt>
      <trkpt lat="41.57224" lon="9.27426">
        <ele>3.98</ele>
        <time>2014-06-03T12:08:49Z</time>
      </trkpt>
      <trkpt lat="41.57215" lon="9.27422">
        <ele>4.46</ele>
        <time>2014-06-03T12:08:50Z</time>
      </trkpt>
      <trkpt lat="41.57207" lon="9.27416">
        <ele>4.46</ele>
        <time>2014-06-03T12:08:51Z</time>
      </trkpt>
      <trkpt lat="41.57188" lon="9.27403">
        <ele>4.94</ele>
        <time>2014-06-03T12:08:54Z</time>
      </trkpt>
      <trkpt lat="41.57182" lon="9.27405">
        <ele>4.46</ele>
        <time>2014-06-03T12:08:55Z</time>
      </trkpt>
      <trkpt lat="41.57175" lon="9.27411">
        <ele>4.46</ele>
        <time>2014-06-03T12:08:56Z</time>
      </trkpt>
      <trkpt lat="41.57162" lon="9.27421">
        <ele>3.5</ele>
        <time>2014-06-03T12:08:58Z</time>
      </trkpt>
      <trkpt lat="41.57155" lon="9.27422">
        <ele>3.02</ele>
        <time>2014-06-03T12:08:59Z</time>
      </trkpt>
      <trkpt lat="41.57146" lon="9.27422">
        <ele>3.02</ele>
        <time>2014-06-03T12:09:00Z</time>
      </trkpt>
      <trkpt lat="41.57094" lon="9.27413">
        <ele>3.5</ele>
        <time>2014-06-03T12:09:06Z</time>
      </trkpt>
      <trkpt lat="41.56983" lon="9.27403">
        <ele>3.02</ele>
        <time>2014-06-03T12:09:13Z</time>
      </trkpt>
      <trkpt lat="41.56843" lon="9.27387">
        <ele>2.54</ele>
        <time>2014-06-03T12:09:22Z</time>
      </trkpt>
      <trkpt lat="41.56689" lon="9.27369">
        <ele>2.06</ele>
        <time>2014-06-03T12:09:31Z</time>
      </trkpt>
      <trkpt lat="41.5645" lon="9.27336">
        <ele>10.23</ele>
        <time>2014-06-03T12:09:44Z</time>
      </trkpt>
      <trkpt lat="41.56296" lon="9.27314">
        <ele>13.6</ele>
        <time>2014-06-03T12:09:53Z</time>
      </trkpt>
      <trkpt lat="41.56216" lon="9.27303">
        <ele>16.96</ele>
        <time>2014-06-03T12:09:59Z</time>
      </trkpt>
      <trkpt lat="41.56039" lon="9.27283">
        <ele>25.61</ele>
        <time>2014-06-03T12:10:08Z</time>
      </trkpt>
      <trkpt lat="41.55828" lon="9.27244">
        <ele>27.05</ele>
        <time>2014-06-03T12:10:18Z</time>
      </trkpt>
      <trkpt lat="41.55587" lon="9.27172">
        <ele>24.65</ele>
        <time>2014-06-03T12:10:28Z</time>
      </trkpt>
      <trkpt lat="41.55363" lon="9.27109">
        <ele>31.86</ele>
        <time>2014-06-03T12:10:38Z</time>
      </trkpt>
      <trkpt lat="41.55149" lon="9.27047">
        <ele>32.34</ele>
        <time>2014-06-03T12:10:49Z</time>
      </trkpt>
      <trkpt lat="41.54966" lon="9.26993">
        <ele>27.05</ele>
        <time>2014-06-03T12:10:57Z</time>
      </trkpt>
      <trkpt lat="41.54786" lon="9.26943">
        <ele>29.46</ele>
        <time>2014-06-03T12:11:06Z</time>
      </trkpt>
      <trkpt lat="41.54704" lon="9.26917">
        <ele>28.98</ele>
        <time>2014-06-03T12:11:12Z</time>
      </trkpt>
      <trkpt lat="41.54697" lon="9.26912">
        <ele>29.46</ele>
        <time>2014-06-03T12:11:13Z</time>
      </trkpt>
      <trkpt lat="41.54692" lon="9.26905">
        <ele>29.94</ele>
        <time>2014-06-03T12:11:14Z</time>
      </trkpt>
      <trkpt lat="41.54683" lon="9.26894">
        <ele>29.46</ele>
        <time>2014-06-03T12:11:16Z</time>
      </trkpt>
      <trkpt lat="41.54677" lon="9.26894">
        <ele>28.98</ele>
        <time>2014-06-03T12:11:17Z</time>
      </trkpt>
      <trkpt lat="41.54646" lon="9.26897">
        <ele>29.94</ele>
        <time>2014-06-03T12:11:20Z</time>
      </trkpt>
      <trkpt lat="41.54632" lon="9.26895">
        <ele>30.42</ele>
        <time>2014-06-03T12:11:21Z</time>
      </trkpt>
      <trkpt lat="41.54505" lon="9.26862">
        <ele>32.82</ele>
        <time>2014-06-03T12:11:28Z</time>
      </trkpt>
      <trkpt lat="41.54288" lon="9.26793">
        <ele>33.78</ele>
        <time>2014-06-03T12:11:39Z</time>
      </trkpt>
      <trkpt lat="41.54087" lon="9.26717">
        <ele>28.5</ele>
        <time>2014-06-03T12:11:48Z</time>
      </trkpt>
      <trkpt lat="41.5385" lon="9.26625">
        <ele>21.29</ele>
        <time>2014-06-03T12:11:58Z</time>
      </trkpt>
      <trkpt lat="41.5356" lon="9.26515">
        <ele>16.48</ele>
        <time>2014-06-03T12:12:10Z</time>
      </trkpt>
      <trkpt lat="41.53197" lon="9.26376">
        <ele>11.19</ele>
        <time>2014-06-03T12:12:27Z</time>
      </trkpt>
      <trkpt lat="41.52901" lon="9.26261">
        <ele>9.27</ele>
        <time>2014-06-03T12:12:41Z</time>
      </trkpt>
      <trkpt lat="41.52631" lon="9.26158">
        <ele>9.27</ele>
        <time>2014-06-03T12:12:53Z</time>
      </trkpt>
      <trkpt lat="41.52309" lon="9.26036">
        <ele>8.79</ele>
        <time>2014-06-03T12:13:07Z</time>
      </trkpt>
      <trkpt lat="41.51855" lon="9.25862">
        <ele>12.15</ele>
        <time>2014-06-03T12:13:26Z</time>
      </trkpt>
      <trkpt lat="41.51521" lon="9.25735">
        <ele>14.56</ele>
        <time>2014-06-03T12:13:41Z</time>
      </trkpt>
      <trkpt lat="41.51221" lon="9.25621">
        <ele>20.32</ele>
        <time>2014-06-03T12:13:54Z</time>
      </trkpt>
      <trkpt lat="41.50911" lon="9.25503">
        <ele>24.17</ele>
        <time>2014-06-03T12:14:08Z</time>
      </trkpt>
      <trkpt lat="41.50618" lon="9.25392">
        <ele>33.3</ele>
        <time>2014-06-03T12:14:22Z</time>
      </trkpt>
      <trkpt lat="41.50282" lon="9.25264">
        <ele>40.03</ele>
        <time>2014-06-03T12:14:37Z</time>
      </trkpt>
      <trkpt lat="41.50035" lon="9.2517">
        <ele>44.84</ele>
        <time>2014-06-03T12:14:47Z</time>
      </trkpt>
      <trkpt lat="41.49867" lon="9.2507">
        <ele>50.61</ele>
        <time>2014-06-03T12:14:55Z</time>
      </trkpt>
      <trkpt lat="41.4964" lon="9.24885">
        <ele>56.86</ele>
        <time>2014-06-03T12:15:06Z</time>
      </trkpt>
      <trkpt lat="41.49394" lon="9.24677">
        <ele>64.55</ele>
        <time>2014-06-03T12:15:18Z</time>
      </trkpt>
      <trkpt lat="41.49286" lon="9.24596">
        <ele>66.95</ele>
        <time>2014-06-03T12:15:24Z</time>
      </trkpt>
      <trkpt lat="41.49268" lon="9.24588">
        <ele>66.95</ele>
        <time>2014-06-03T12:15:25Z</time>
      </trkpt>
      <trkpt lat="41.49248" lon="9.24583">
        <ele>66.47</ele>
        <time>2014-06-03T12:15:26Z</time>
      </trkpt>
      <trkpt lat="41.49121" lon="9.24554">
        <ele>68.39</ele>
        <time>2014-06-03T12:15:33Z</time>
      </trkpt>
      <trkpt lat="41.49106" lon="9.24543">
        <ele>69.35</ele>
        <time>2014-06-03T12:15:34Z</time>
      </trkpt>
      <trkpt lat="41.49092" lon="9.24528">
        <ele>69.83</ele>
        <time>2014-06-03T12:15:35Z</time>
      </trkpt>
      <trkpt lat="41.49081" lon="9.2451">
        <ele>70.31</ele>
        <time>2014-06-03T12:15:36Z</time>
      </trkpt>
      <trkpt lat="41.49073" lon="9.24489">
        <ele>70.31</ele>
        <time>2014-06-03T12:15:37Z</time>
      </trkpt>
      <trkpt lat="41.49068" lon="9.24464">
        <ele>70.79</ele>
        <time>2014-06-03T12:15:38Z</time>
      </trkpt>
      <trkpt lat="41.49064" lon="9.24439">
        <ele>71.27</ele>
        <time>2014-06-03T12:15:39Z</time>
      </trkpt>
      <trkpt lat="41.49056" lon="9.24367">
        <ele>72.72</ele>
        <time>2014-06-03T12:15:42Z</time>
      </trkpt>
      <trkpt lat="41.49051" lon="9.24346">
        <ele>73.2</ele>
        <time>2014-06-03T12:15:43Z</time>
      </trkpt>
      <trkpt lat="41.49042" lon="9.24328">
        <ele>73.68</ele>
        <time>2014-06-03T12:15:44Z</time>
      </trkpt>
      <trkpt lat="41.49029" lon="9.24313">
        <ele>74.16</ele>
        <time>2014-06-03T12:15:45Z</time>
      </trkpt>
      <trkpt lat="41.49015" lon="9.243">
        <ele>74.16</ele>
        <time>2014-06-03T12:15:46Z</time>
      </trkpt>
      <trkpt lat="41.49" lon="9.24288">
        <ele>74.16</ele>
        <time>2014-06-03T12:15:47Z</time>
      </trkpt>
      <trkpt lat="41.48946" lon="9.2426">
        <ele>73.2</ele>
        <time>2014-06-03T12:15:50Z</time>
      </trkpt>
      <trkpt lat="41.48928" lon="9.24256">
        <ele>72.72</ele>
        <time>2014-06-03T12:15:51Z</time>
      </trkpt>
      <trkpt lat="41.48909" lon="9.24255">
        <ele>72.24</ele>
        <time>2014-06-03T12:15:52Z</time>
      </trkpt>
      <trkpt lat="41.48852" lon="9.24248">
        <ele>71.27</ele>
        <time>2014-06-03T12:15:55Z</time>
      </trkpt>
      <trkpt lat="41.48834" lon="9.2424">
        <ele>70.31</ele>
        <time>2014-06-03T12:15:56Z</time>
      </trkpt>
      <trkpt lat="41.48815" lon="9.2423">
        <ele>69.83</ele>
        <time>2014-06-03T12:15:57Z</time>
      </trkpt>
      <trkpt lat="41.48614" lon="9.24097">
        <ele>63.58</ele>
        <time>2014-06-03T12:16:07Z</time>
      </trkpt>
      <trkpt lat="41.48309" lon="9.23898">
        <ele>56.86</ele>
        <time>2014-06-03T12:16:22Z</time>
      </trkpt>
      <trkpt lat="41.48176" lon="9.23806">
        <ele>53.01</ele>
        <time>2014-06-03T12:16:29Z</time>
      </trkpt>
      <trkpt lat="41.4816" lon="9.23788">
        <ele>52.53</ele>
        <time>2014-06-03T12:16:30Z</time>
      </trkpt>
      <trkpt lat="41.47992" lon="9.23566">
        <ele>47.72</ele>
        <time>2014-06-03T12:16:41Z</time>
      </trkpt>
      <trkpt lat="41.47801" lon="9.23317">
        <ele>44.36</ele>
        <time>2014-06-03T12:16:53Z</time>
      </trkpt>
      <trkpt lat="41.47596" lon="9.23049">
        <ele>40.03</ele>
        <time>2014-06-03T12:17:05Z</time>
      </trkpt>
      <trkpt lat="41.47341" lon="9.22718">
        <ele>42.92</ele>
        <time>2014-06-03T12:17:20Z</time>
      </trkpt>
      <trkpt lat="41.47298" lon="9.22668">
        <ele>42.44</ele>
        <time>2014-06-03T12:17:23Z</time>
      </trkpt>
      <trkpt lat="41.4728" lon="9.22655">
        <ele>41.95</ele>
        <time>2014-06-03T12:17:24Z</time>
      </trkpt>
      <trkpt lat="41.47261" lon="9.22643">
        <ele>40.99</ele>
        <time>2014-06-03T12:17:25Z</time>
      </trkpt>
      <trkpt lat="41.47092" lon="9.22547">
        <ele>35.71</ele>
        <time>2014-06-03T12:17:33Z</time>
      </trkpt>
      <trkpt lat="41.46868" lon="9.22421">
        <ele>38.59</ele>
        <time>2014-06-03T12:17:43Z</time>
      </trkpt>
      <trkpt lat="41.46646" lon="9.22284">
        <ele>37.15</ele>
        <time>2014-06-03T12:17:53Z</time>
      </trkpt>
      <trkpt lat="41.4634" lon="9.22017">
        <ele>28.5</ele>
        <time>2014-06-03T12:18:08Z</time>
      </trkpt>
      <trkpt lat="41.46049" lon="9.21758">
        <ele>21.29</ele>
        <time>2014-06-03T12:18:22Z</time>
      </trkpt>
      <trkpt lat="41.45754" lon="9.215">
        <ele>18.88</ele>
        <time>2014-06-03T12:18:36Z</time>
      </trkpt>
      <trkpt lat="41.45461" lon="9.21239">
        <ele>14.08</ele>
        <time>2014-06-03T12:18:50Z</time>
      </trkpt>
      <trkpt lat="41.45168" lon="9.2098">
        <ele>10.23</ele>
        <time>2014-06-03T12:19:04Z</time>
      </trkpt>
      <trkpt lat="41.44866" lon="9.20717">
        <ele>11.19</ele>
        <time>2014-06-03T12:19:18Z</time>
      </trkpt>
      <trkpt lat="41.44717" lon="9.20556">
        <ele>11.19</ele>
        <time>2014-06-03T12:19:26Z</time>
      </trkpt>
      <trkpt lat="41.44562" lon="9.20382">
        <ele>4.94</ele>
        <time>2014-06-03T12:19:35Z</time>
      </trkpt>
      <trkpt lat="41.44389" lon="9.20181">
        <ele>11.67</ele>
        <time>2014-06-03T12:19:44Z</time>
      </trkpt>
      <trkpt lat="41.44159" lon="9.19925">
        <ele>11.19</ele>
        <time>2014-06-03T12:19:56Z</time>
      </trkpt>
      <trkpt lat="41.43856" lon="9.196">
        <ele>14.08</ele>
        <time>2014-06-03T12:20:11Z</time>
      </trkpt>
      <trkpt lat="41.43509" lon="9.19225">
        <ele>18.4</ele>
        <time>2014-06-03T12:20:28Z</time>
      </trkpt>
      <trkpt lat="41.43217" lon="9.18909">
        <ele>26.09</ele>
        <time>2014-06-03T12:20:43Z</time>
      </trkpt>
      <trkpt lat="41.4315" lon="9.18844">
        <ele>28.02</ele>
        <time>2014-06-03T12:20:47Z</time>
      </trkpt>
      <trkpt lat="41.43131" lon="9.18834">
        <ele>28.5</ele>
        <time>2014-06-03T12:20:48Z</time>
      </trkpt>
      <trkpt lat="41.4311" lon="9.18827">
        <ele>29.46</ele>
        <time>2014-06-03T12:20:49Z</time>
      </trkpt>
      <trkpt lat="41.42933" lon="9.18788">
        <ele>35.23</ele>
        <time>2014-06-03T12:20:57Z</time>
      </trkpt>
      <trkpt lat="41.42914" lon="9.18778">
        <ele>35.71</ele>
        <time>2014-06-03T12:20:58Z</time>
      </trkpt>
      <trkpt lat="41.42895" lon="9.18766">
        <ele>36.19</ele>
        <time>2014-06-03T12:20:59Z</time>
      </trkpt>
      <trkpt lat="41.42827" lon="9.18723">
        <ele>39.55</ele>
        <time>2014-06-03T12:21:03Z</time>
      </trkpt>
      <trkpt lat="41.42796" lon="9.18713">
        <ele>40.51</ele>
        <time>2014-06-03T12:21:05Z</time>
      </trkpt>
      <trkpt lat="41.42784" lon="9.18701">
        <ele>40.99</ele>
        <time>2014-06-03T12:21:06Z</time>
      </trkpt>
      <trkpt lat="41.42772" lon="9.18684">
        <ele>41.47</ele>
        <time>2014-06-03T12:21:07Z</time>
      </trkpt>
      <trkpt lat="41.42762" lon="9.18663">
        <ele>41.95</ele>
        <time>2014-06-03T12:21:08Z</time>
      </trkpt>
      <trkpt lat="41.42752" lon="9.18641">
        <ele>42.44</ele>
        <time>2014-06-03T12:21:09Z</time>
      </trkpt>
      <trkpt lat="41.42681" lon="9.18489">
        <ele>49.16</ele>
        <time>2014-06-03T12:21:16Z</time>
      </trkpt>
      <trkpt lat="41.42676" lon="9.1847">
        <ele>50.61</ele>
        <time>2014-06-03T12:21:17Z</time>
      </trkpt>
      <trkpt lat="41.42676" lon="9.18451">
        <ele>52.05</ele>
        <time>2014-06-03T12:21:18Z</time>
      </trkpt>
      <trkpt lat="41.42678" lon="9.18433">
        <ele>53.97</ele>
        <time>2014-06-03T12:21:19Z</time>
      </trkpt>
      <trkpt lat="41.42681" lon="9.18414">
        <ele>55.41</ele>
        <time>2014-06-03T12:21:20Z</time>
      </trkpt>
      <trkpt lat="41.42684" lon="9.18396">
        <ele>55.89</ele>
        <time>2014-06-03T12:21:21Z</time>
      </trkpt>
      <trkpt lat="41.42684" lon="9.18378">
        <ele>56.86</ele>
        <time>2014-06-03T12:21:22Z</time>
      </trkpt>
      <trkpt lat="41.42681" lon="9.1836">
        <ele>58.3</ele>
        <time>2014-06-03T12:21:23Z</time>
      </trkpt>
      <trkpt lat="41.42674" lon="9.18344">
        <ele>58.78</ele>
        <time>2014-06-03T12:21:24Z</time>
      </trkpt>
      <trkpt lat="41.42665" lon="9.18327">
        <ele>59.26</ele>
        <time>2014-06-03T12:21:25Z</time>
      </trkpt>
      <trkpt lat="41.42656" lon="9.18311">
        <ele>59.74</ele>
        <time>2014-06-03T12:21:26Z</time>
      </trkpt>
      <trkpt lat="41.42579" lon="9.18213">
        <ele>64.55</ele>
        <time>2014-06-03T12:21:33Z</time>
      </trkpt>
      <trkpt lat="41.42566" lon="9.18205">
        <ele>65.51</ele>
        <time>2014-06-03T12:21:34Z</time>
      </trkpt>
      <trkpt lat="41.42553" lon="9.18198">
        <ele>65.99</ele>
        <time>2014-06-03T12:21:35Z</time>
      </trkpt>
      <trkpt lat="41.42424" lon="9.18131">
        <ele>72.72</ele>
        <time>2014-06-03T12:21:44Z</time>
      </trkpt>
      <trkpt lat="41.42411" lon="9.1812">
        <ele>73.68</ele>
        <time>2014-06-03T12:21:45Z</time>
      </trkpt>
      <trkpt lat="41.42399" lon="9.18109">
        <ele>74.64</ele>
        <time>2014-06-03T12:21:46Z</time>
      </trkpt>
      <trkpt lat="41.42378" lon="9.18089">
        <ele>75.12</ele>
        <time>2014-06-03T12:21:48Z</time>
      </trkpt>
      <trkpt lat="41.42366" lon="9.18083">
        <ele>75.12</ele>
        <time>2014-06-03T12:21:49Z</time>
      </trkpt>
      <trkpt lat="41.42351" lon="9.18083">
        <ele>75.12</ele>
        <time>2014-06-03T12:21:50Z</time>
      </trkpt>
      <trkpt lat="41.42337" lon="9.18088">
        <ele>75.12</ele>
        <time>2014-06-03T12:21:51Z</time>
      </trkpt>
      <trkpt lat="41.42324" lon="9.18097">
        <ele>75.6</ele>
        <time>2014-06-03T12:21:52Z</time>
      </trkpt>
      <trkpt lat="41.42311" lon="9.18107">
        <ele>76.08</ele>
        <time>2014-06-03T12:21:53Z</time>
      </trkpt>
      <trkpt lat="41.42299" lon="9.18115">
        <ele>76.56</ele>
        <time>2014-06-03T12:21:54Z</time>
      </trkpt>
      <trkpt lat="41.42286" lon="9.18122">
        <ele>77.52</ele>
        <time>2014-06-03T12:21:55Z</time>
      </trkpt>
      <trkpt lat="41.42273" lon="9.18126">
        <ele>78.48</ele>
        <time>2014-06-03T12:21:56Z</time>
      </trkpt>
      <trkpt lat="41.42261" lon="9.18126">
        <ele>79.45</ele>
        <time>2014-06-03T12:21:57Z</time>
      </trkpt>
      <trkpt lat="41.4225" lon="9.18126">
        <ele>79.93</ele>
        <time>2014-06-03T12:21:58Z</time>
      </trkpt>
      <trkpt lat="41.42151" lon="9.18124">
        <ele>86.18</ele>
        <time>2014-06-03T12:22:06Z</time>
      </trkpt>
      <trkpt lat="41.42138" lon="9.18118">
        <ele>86.66</ele>
        <time>2014-06-03T12:22:07Z</time>
      </trkpt>
      <trkpt lat="41.42004" lon="9.18029">
        <ele>88.58</ele>
        <time>2014-06-03T12:22:17Z</time>
      </trkpt>
      <trkpt lat="41.41865" lon="9.17931">
        <ele>79.45</ele>
        <time>2014-06-03T12:22:28Z</time>
      </trkpt>
      <trkpt lat="41.41718" lon="9.1783">
        <ele>72.72</ele>
        <time>2014-06-03T12:22:40Z</time>
      </trkpt>
      <trkpt lat="41.41564" lon="9.1772">
        <ele>67.43</ele>
        <time>2014-06-03T12:22:51Z</time>
      </trkpt>
      <trkpt lat="41.41483" lon="9.17649">
        <ele>67.91</ele>
        <time>2014-06-03T12:22:57Z</time>
      </trkpt>
      <trkpt lat="41.41471" lon="9.17632">
        <ele>67.91</ele>
        <time>2014-06-03T12:22:58Z</time>
      </trkpt>
      <trkpt lat="41.41457" lon="9.17614">
        <ele>72.24</ele>
        <time>2014-06-03T12:22:59Z</time>
      </trkpt>
      <trkpt lat="41.41384" lon="9.17442">
        <ele>66.95</ele>
        <time>2014-06-03T12:23:08Z</time>
      </trkpt>
      <trkpt lat="41.41363" lon="9.17388">
        <ele>65.51</ele>
        <time>2014-06-03T12:23:11Z</time>
      </trkpt>
      <trkpt lat="41.41358" lon="9.17366">
        <ele>65.99</ele>
        <time>2014-06-03T12:23:12Z</time>
      </trkpt>
      <trkpt lat="41.41356" lon="9.17345">
        <ele>65.99</ele>
        <time>2014-06-03T12:23:13Z</time>
      </trkpt>
      <trkpt lat="41.41357" lon="9.17323">
        <ele>65.03</ele>
        <time>2014-06-03T12:23:14Z</time>
      </trkpt>
      <trkpt lat="41.41358" lon="9.17302">
        <ele>64.07</ele>
        <time>2014-06-03T12:23:15Z</time>
      </trkpt>
      <trkpt lat="41.41375" lon="9.17182">
        <ele>61.66</ele>
        <time>2014-06-03T12:23:21Z</time>
      </trkpt>
      <trkpt lat="41.41374" lon="9.17162">
        <ele>61.18</ele>
        <time>2014-06-03T12:23:22Z</time>
      </trkpt>
      <trkpt lat="41.41369" lon="9.17142">
        <ele>60.22</ele>
        <time>2014-06-03T12:23:23Z</time>
      </trkpt>
      <trkpt lat="41.41362" lon="9.17124">
        <ele>59.26</ele>
        <time>2014-06-03T12:23:24Z</time>
      </trkpt>
      <trkpt lat="41.41356" lon="9.17106">
        <ele>58.3</ele>
        <time>2014-06-03T12:23:25Z</time>
      </trkpt>
      <trkpt lat="41.4135" lon="9.17088">
        <ele>57.82</ele>
        <time>2014-06-03T12:23:26Z</time>
      </trkpt>
      <trkpt lat="41.41345" lon="9.1707">
        <ele>56.86</ele>
        <time>2014-06-03T12:23:27Z</time>
      </trkpt>
      <trkpt lat="41.41341" lon="9.17052">
        <ele>56.37</ele>
        <time>2014-06-03T12:23:28Z</time>
      </trkpt>
      <trkpt lat="41.41338" lon="9.17035">
        <ele>55.89</ele>
        <time>2014-06-03T12:23:29Z</time>
      </trkpt>
      <trkpt lat="41.41336" lon="9.1702">
        <ele>55.89</ele>
        <time>2014-06-03T12:23:30Z</time>
      </trkpt>
      <trkpt lat="41.4133" lon="9.17007">
        <ele>56.86</ele>
        <time>2014-06-03T12:23:31Z</time>
      </trkpt>
      <trkpt lat="41.41324" lon="9.16999">
        <ele>55.41</ele>
        <time>2014-06-03T12:23:32Z</time>
      </trkpt>
      <trkpt lat="41.41316" lon="9.16998">
        <ele>53.49</ele>
        <time>2014-06-03T12:23:33Z</time>
      </trkpt>
      <trkpt lat="41.41308" lon="9.17005">
        <ele>52.05</ele>
        <time>2014-06-03T12:23:34Z</time>
      </trkpt>
      <trkpt lat="41.41301" lon="9.17014">
        <ele>51.57</ele>
        <time>2014-06-03T12:23:35Z</time>
      </trkpt>
      <trkpt lat="41.41299" lon="9.17027">
        <ele>51.09</ele>
        <time>2014-06-03T12:23:36Z</time>
      </trkpt>
      <trkpt lat="41.41297" lon="9.17042">
        <ele>51.09</ele>
        <time>2014-06-03T12:23:37Z</time>
      </trkpt>
      <trkpt lat="41.41296" lon="9.17058">
        <ele>51.57</ele>
        <time>2014-06-03T12:23:38Z</time>
      </trkpt>
      <trkpt lat="41.41291" lon="9.17128">
        <ele>53.97</ele>
        <time>2014-06-03T12:23:42Z</time>
      </trkpt>
      <trkpt lat="41.41287" lon="9.17146">
        <ele>54.45</ele>
        <time>2014-06-03T12:23:43Z</time>
      </trkpt>
      <trkpt lat="41.41281" lon="9.17163">
        <ele>54.93</ele>
        <time>2014-06-03T12:23:44Z</time>
      </trkpt>
      <trkpt lat="41.41271" lon="9.1718">
        <ele>55.89</ele>
        <time>2014-06-03T12:23:45Z</time>
      </trkpt>
      <trkpt lat="41.41262" lon="9.17197">
        <ele>56.86</ele>
        <time>2014-06-03T12:23:46Z</time>
      </trkpt>
      <trkpt lat="41.41184" lon="9.17364">
        <ele>66.95</ele>
        <time>2014-06-03T12:23:56Z</time>
      </trkpt>
      <trkpt lat="41.41176" lon="9.17376">
        <ele>67.43</ele>
        <time>2014-06-03T12:23:57Z</time>
      </trkpt>
      <trkpt lat="41.41164" lon="9.17386">
        <ele>69.83</ele>
        <time>2014-06-03T12:23:58Z</time>
      </trkpt>
      <trkpt lat="41.41153" lon="9.17391">
        <ele>70.79</ele>
        <time>2014-06-03T12:23:59Z</time>
      </trkpt>
      <trkpt lat="41.41143" lon="9.17394">
        <ele>72.24</ele>
        <time>2014-06-03T12:24:00Z</time>
      </trkpt>
      <trkpt lat="41.41137" lon="9.17393">
        <ele>72.24</ele>
        <time>2014-06-03T12:24:01Z</time>
      </trkpt>
      <trkpt lat="41.41133" lon="9.17391">
        <ele>72.24</ele>
        <time>2014-06-03T12:24:02Z</time>
      </trkpt>
      <trkpt lat="41.41129" lon="9.17389">
        <ele>72.24</ele>
        <time>2014-06-03T12:24:03Z</time>
      </trkpt>
      <trkpt lat="41.41124" lon="9.17386">
        <ele>72.24</ele>
        <time>2014-06-03T12:24:04Z</time>
      </trkpt>
      <trkpt lat="41.41057" lon="9.17347">
        <ele>78</ele>
        <time>2014-06-03T12:24:12Z</time>
      </trkpt>
      <trkpt lat="41.40941" lon="9.17288">
        <ele>81.85</ele>
        <time>2014-06-03T12:24:21Z</time>
      </trkpt>
      <trkpt lat="41.40752" lon="9.17191">
        <ele>78.97</ele>
        <time>2014-06-03T12:24:34Z</time>
      </trkpt>
      <trkpt lat="41.40637" lon="9.17097">
        <ele>72.72</ele>
        <time>2014-06-03T12:24:42Z</time>
      </trkpt>
      <trkpt lat="41.40519" lon="9.16988">
        <ele>66.47</ele>
        <time>2014-06-03T12:24:52Z</time>
      </trkpt>
      <trkpt lat="41.40421" lon="9.16901">
        <ele>63.1</ele>
        <time>2014-06-03T12:25:00Z</time>
      </trkpt>
      <trkpt lat="41.40357" lon="9.16852">
        <ele>59.26</ele>
        <time>2014-06-03T12:25:05Z</time>
      </trkpt>
      <trkpt lat="41.40343" lon="9.16847">
        <ele>58.78</ele>
        <time>2014-06-03T12:25:06Z</time>
      </trkpt>
      <trkpt lat="41.40327" lon="9.16843">
        <ele>58.3</ele>
        <time>2014-06-03T12:25:07Z</time>
      </trkpt>
      <trkpt lat="41.40311" lon="9.16841">
        <ele>58.3</ele>
        <time>2014-06-03T12:25:08Z</time>
      </trkpt>
      <trkpt lat="41.40295" lon="9.1684">
        <ele>57.34</ele>
        <time>2014-06-03T12:25:09Z</time>
      </trkpt>
      <trkpt lat="41.40206" lon="9.16833">
        <ele>54.93</ele>
        <time>2014-06-03T12:25:15Z</time>
      </trkpt>
      <trkpt lat="41.40191" lon="9.16828">
        <ele>54.93</ele>
        <time>2014-06-03T12:25:16Z</time>
      </trkpt>
      <trkpt lat="41.40178" lon="9.16819">
        <ele>53.97</ele>
        <time>2014-06-03T12:25:17Z</time>
      </trkpt>
      <trkpt lat="41.40165" lon="9.16807">
        <ele>53.49</ele>
        <time>2014-06-03T12:25:18Z</time>
      </trkpt>
      <trkpt lat="41.40153" lon="9.16793">
        <ele>53.49</ele>
        <time>2014-06-03T12:25:19Z</time>
      </trkpt>
      <trkpt lat="41.40029" lon="9.16652">
        <ele>47.72</ele>
        <time>2014-06-03T12:25:30Z</time>
      </trkpt>
      <trkpt lat="41.39991" lon="9.16621">
        <ele>52.05</ele>
        <time>2014-06-03T12:25:34Z</time>
      </trkpt>
      <trkpt lat="41.39986" lon="9.16611">
        <ele>52.05</ele>
        <time>2014-06-03T12:25:35Z</time>
      </trkpt>
      <trkpt lat="41.39982" lon="9.16602">
        <ele>52.53</ele>
        <time>2014-06-03T12:25:36Z</time>
      </trkpt>
      <trkpt lat="41.3998" lon="9.16595">
        <ele>52.53</ele>
        <time>2014-06-03T12:25:37Z</time>
      </trkpt>
      <trkpt lat="41.39979" lon="9.1659">
        <ele>52.53</ele>
        <time>2014-06-03T12:25:38Z</time>
      </trkpt>
      <trkpt lat="41.3998" lon="9.16574">
        <ele>53.49</ele>
        <time>2014-06-03T12:25:43Z</time>
      </trkpt>
      <trkpt lat="41.39981" lon="9.16567">
        <ele>53.97</ele>
        <time>2014-06-03T12:25:44Z</time>
      </trkpt>
      <trkpt lat="41.39984" lon="9.16561">
        <ele>53.97</ele>
        <time>2014-06-03T12:25:45Z</time>
      </trkpt>
      <trkpt lat="41.39991" lon="9.16547">
        <ele>55.41</ele>
        <time>2014-06-03T12:25:47Z</time>
      </trkpt>
      <trkpt lat="41.39992" lon="9.16539">
        <ele>55.41</ele>
        <time>2014-06-03T12:25:48Z</time>
      </trkpt>
      <trkpt lat="41.39989" lon="9.16531">
        <ele>55.89</ele>
        <time>2014-06-03T12:25:49Z</time>
      </trkpt>
      <trkpt lat="41.39984" lon="9.16525">
        <ele>55.41</ele>
        <time>2014-06-03T12:25:50Z</time>
      </trkpt>
      <trkpt lat="41.39978" lon="9.1652">
        <ele>54.93</ele>
        <time>2014-06-03T12:25:51Z</time>
      </trkpt>
      <trkpt lat="41.39971" lon="9.16519">
        <ele>54.93</ele>
        <time>2014-06-03T12:25:52Z</time>
      </trkpt>
      <trkpt lat="41.39965" lon="9.16521">
        <ele>53.97</ele>
        <time>2014-06-03T12:25:53Z</time>
      </trkpt>
      <trkpt lat="41.39959" lon="9.16526">
        <ele>53.97</ele>
        <time>2014-06-03T12:25:54Z</time>
      </trkpt>
      <trkpt lat="41.39957" lon="9.16535">
        <ele>51.57</ele>
        <time>2014-06-03T12:25:55Z</time>
      </trkpt>
      <trkpt lat="41.39956" lon="9.16544">
        <ele>51.09</ele>
        <time>2014-06-03T12:25:56Z</time>
      </trkpt>
      <trkpt lat="41.39958" lon="9.16554">
        <ele>51.09</ele>
        <time>2014-06-03T12:25:57Z</time>
      </trkpt>
      <trkpt lat="41.39963" lon="9.16565">
        <ele>51.09</ele>
        <time>2014-06-03T12:25:58Z</time>
      </trkpt>
      <trkpt lat="41.39969" lon="9.16575">
        <ele>51.57</ele>
        <time>2014-06-03T12:25:59Z</time>
      </trkpt>
      <trkpt lat="41.39979" lon="9.16597">
        <ele>51.09</ele>
        <time>2014-06-03T12:26:01Z</time>
      </trkpt>
      <trkpt lat="41.39984" lon="9.16609">
        <ele>50.13</ele>
        <time>2014-06-03T12:26:02Z</time>
      </trkpt>
      <trkpt lat="41.39991" lon="9.1662">
        <ele>49.65</ele>
        <time>2014-06-03T12:26:03Z</time>
      </trkpt>
      <trkpt lat="41.4" lon="9.16629">
        <ele>49.65</ele>
        <time>2014-06-03T12:26:04Z</time>
      </trkpt>
      <trkpt lat="41.40009" lon="9.16638">
        <ele>49.16</ele>
        <time>2014-06-03T12:26:05Z</time>
      </trkpt>
      <trkpt lat="41.40019" lon="9.16646">
        <ele>48.68</ele>
        <time>2014-06-03T12:26:06Z</time>
      </trkpt>
      <trkpt lat="41.40028" lon="9.16653">
        <ele>48.2</ele>
        <time>2014-06-03T12:26:07Z</time>
      </trkpt>
      <trkpt lat="41.40067" lon="9.16689">
        <ele>47.24</ele>
        <time>2014-06-03T12:26:12Z</time>
      </trkpt>
      <trkpt lat="41.4007" lon="9.16694">
        <ele>47.24</ele>
        <time>2014-06-03T12:26:13Z</time>
      </trkpt>
      <trkpt lat="41.40081" lon="9.16714">
        <ele>48.68</ele>
        <time>2014-06-03T12:26:22Z</time>
      </trkpt>
      <trkpt lat="41.40083" lon="9.16714">
        <ele>49.16</ele>
        <time>2014-06-03T12:27:17Z</time>
      </trkpt>
      <trkpt lat="41.40083" lon="9.16714">
        <ele>49.65</ele>
        <time>2014-06-03T12:28:47Z</time>
      </trkpt>
      <trkpt lat="41.40089" lon="9.16716">
        <ele>50.61</ele>
        <time>2014-06-03T12:29:06Z</time>
      </trkpt>
      <trkpt lat="41.40089" lon="9.16715">
        <ele>50.61</ele>
        <time>2014-06-03T12:29:07Z</time>
      </trkpt>
      <trkpt lat="41.4009" lon="9.16713">
        <ele>50.61</ele>
        <time>2014-06-03T12:29:08Z</time>
      </trkpt>
      <trkpt lat="41.4009" lon="9.16711">
        <ele>50.13</ele>
        <time>2014-06-03T12:29:09Z</time>
      </trkpt>
      <trkpt lat="41.40088" lon="9.1671">
        <ele>49.65</ele>
        <time>2014-06-03T12:29:10Z</time>
      </trkpt>
      <trkpt lat="41.40087" lon="9.16709">
        <ele>49.65</ele>
        <time>2014-06-03T12:29:11Z</time>
      </trkpt>
      <trkpt lat="41.40084" lon="9.16708">
        <ele>49.65</ele>
        <time>2014-06-03T12:29:12Z</time>
      </trkpt>
      <trkpt lat="41.40082" lon="9.16707">
        <ele>48.68</ele>
        <time>2014-06-03T12:29:13Z</time>
      </trkpt>
      <trkpt lat="41.40074" lon="9.16703">
        <ele>47.24</ele>
        <time>2014-06-03T12:29:16Z</time>
      </trkpt>
      <trkpt lat="41.40071" lon="9.16695">
        <ele>46.28</ele>
        <time>2014-06-03T12:29:26Z</time>
      </trkpt>
      <trkpt lat="41.40066" lon="9.16684">
        <ele>45.32</ele>
        <time>2014-06-03T12:29:31Z</time>
      </trkpt>
      <trkpt lat="41.40061" lon="9.16676">
        <ele>45.32</ele>
        <time>2014-06-03T12:29:32Z</time>
      </trkpt>
      <trkpt lat="41.40015" lon="9.16638">
        <ele>42.92</ele>
        <time>2014-06-03T12:29:37Z</time>
      </trkpt>
      <trkpt lat="41.40006" lon="9.1663">
        <ele>44.36</ele>
        <time>2014-06-03T12:29:38Z</time>
      </trkpt>
      <trkpt lat="41.39999" lon="9.16621">
        <ele>44.84</ele>
        <time>2014-06-03T12:29:39Z</time>
      </trkpt>
      <trkpt lat="41.39993" lon="9.16611">
        <ele>46.28</ele>
        <time>2014-06-03T12:29:40Z</time>
      </trkpt>
      <trkpt lat="41.39989" lon="9.16601">
        <ele>46.76</ele>
        <time>2014-06-03T12:29:41Z</time>
      </trkpt>
      <trkpt lat="41.39986" lon="9.16592">
        <ele>47.24</ele>
        <time>2014-06-03T12:29:42Z</time>
      </trkpt>
      <trkpt lat="41.39985" lon="9.16585">
        <ele>47.24</ele>
        <time>2014-06-03T12:29:43Z</time>
      </trkpt>
      <trkpt lat="41.39985" lon="9.16577">
        <ele>47.24</ele>
        <time>2014-06-03T12:29:44Z</time>
      </trkpt>
      <trkpt lat="41.39987" lon="9.16571">
        <ele>47.24</ele>
        <time>2014-06-03T12:29:45Z</time>
      </trkpt>
      <trkpt lat="41.3999" lon="9.16564">
        <ele>47.72</ele>
        <time>2014-06-03T12:29:46Z</time>
      </trkpt>
      <trkpt lat="41.39992" lon="9.16557">
        <ele>48.2</ele>
        <time>2014-06-03T12:29:47Z</time>
      </trkpt>
      <trkpt lat="41.39994" lon="9.16541">
        <ele>48.68</ele>
        <time>2014-06-03T12:29:49Z</time>
      </trkpt>
      <trkpt lat="41.39991" lon="9.16531">
        <ele>48.68</ele>
        <time>2014-06-03T12:29:50Z</time>
      </trkpt>
      <trkpt lat="41.39985" lon="9.16524">
        <ele>49.16</ele>
        <time>2014-06-03T12:29:51Z</time>
      </trkpt>
      <trkpt lat="41.39979" lon="9.1652">
        <ele>48.68</ele>
        <time>2014-06-03T12:29:52Z</time>
      </trkpt>
      <trkpt lat="41.39971" lon="9.1652">
        <ele>48.2</ele>
        <time>2014-06-03T12:29:53Z</time>
      </trkpt>
      <trkpt lat="41.39962" lon="9.1652">
        <ele>48.2</ele>
        <time>2014-06-03T12:29:54Z</time>
      </trkpt>
      <trkpt lat="41.39953" lon="9.16521">
        <ele>47.72</ele>
        <time>2014-06-03T12:29:55Z</time>
      </trkpt>
      <trkpt lat="41.39931" lon="9.16515">
        <ele>46.28</ele>
        <time>2014-06-03T12:29:57Z</time>
      </trkpt>
      <trkpt lat="41.39918" lon="9.16508">
        <ele>45.8</ele>
        <time>2014-06-03T12:29:58Z</time>
      </trkpt>
      <trkpt lat="41.39906" lon="9.16499">
        <ele>44.84</ele>
        <time>2014-06-03T12:29:59Z</time>
      </trkpt>
      <trkpt lat="41.39893" lon="9.16487">
        <ele>44.36</ele>
        <time>2014-06-03T12:30:00Z</time>
      </trkpt>
      <trkpt lat="41.39879" lon="9.16472">
        <ele>44.84</ele>
        <time>2014-06-03T12:30:01Z</time>
      </trkpt>
      <trkpt lat="41.39867" lon="9.16458">
        <ele>43.88</ele>
        <time>2014-06-03T12:30:02Z</time>
      </trkpt>
      <trkpt lat="41.39791" lon="9.1637">
        <ele>36.67</ele>
        <time>2014-06-03T12:30:09Z</time>
      </trkpt>
      <trkpt lat="41.39779" lon="9.16361">
        <ele>36.19</ele>
        <time>2014-06-03T12:30:10Z</time>
      </trkpt>
      <trkpt lat="41.39764" lon="9.16354">
        <ele>35.23</ele>
        <time>2014-06-03T12:30:11Z</time>
      </trkpt>
      <trkpt lat="41.39749" lon="9.16347">
        <ele>34.26</ele>
        <time>2014-06-03T12:30:12Z</time>
      </trkpt>
      <trkpt lat="41.39733" lon="9.16345">
        <ele>34.26</ele>
        <time>2014-06-03T12:30:13Z</time>
      </trkpt>
      <trkpt lat="41.39719" lon="9.16343">
        <ele>33.3</ele>
        <time>2014-06-03T12:30:14Z</time>
      </trkpt>
      <trkpt lat="41.39705" lon="9.16342">
        <ele>32.34</ele>
        <time>2014-06-03T12:30:15Z</time>
      </trkpt>
      <trkpt lat="41.39681" lon="9.16335">
        <ele>32.34</ele>
        <time>2014-06-03T12:30:17Z</time>
      </trkpt>
      <trkpt lat="41.3967" lon="9.16329">
        <ele>31.86</ele>
        <time>2014-06-03T12:30:18Z</time>
      </trkpt>
      <trkpt lat="41.3966" lon="9.16322">
        <ele>31.38</ele>
        <time>2014-06-03T12:30:19Z</time>
      </trkpt>
      <trkpt lat="41.39653" lon="9.16316">
        <ele>30.9</ele>
        <time>2014-06-03T12:30:20Z</time>
      </trkpt>
      <trkpt lat="41.39647" lon="9.16307">
        <ele>31.38</ele>
        <time>2014-06-03T12:30:21Z</time>
      </trkpt>
      <trkpt lat="41.39642" lon="9.16297">
        <ele>30.9</ele>
        <time>2014-06-03T12:30:22Z</time>
      </trkpt>
      <trkpt lat="41.39639" lon="9.16283">
        <ele>30.42</ele>
        <time>2014-06-03T12:30:23Z</time>
      </trkpt>
      <trkpt lat="41.39635" lon="9.16268">
        <ele>30.42</ele>
        <time>2014-06-03T12:30:24Z</time>
      </trkpt>
      <trkpt lat="41.39628" lon="9.16254">
        <ele>30.42</ele>
        <time>2014-06-03T12:30:25Z</time>
      </trkpt>
      <trkpt lat="41.3962" lon="9.16241">
        <ele>29.46</ele>
        <time>2014-06-03T12:30:26Z</time>
      </trkpt>
      <trkpt lat="41.3961" lon="9.1623">
        <ele>28.98</ele>
        <time>2014-06-03T12:30:27Z</time>
      </trkpt>
      <trkpt lat="41.39599" lon="9.16223">
        <ele>28.02</ele>
        <time>2014-06-03T12:30:28Z</time>
      </trkpt>
      <trkpt lat="41.39588" lon="9.1622">
        <ele>27.05</ele>
        <time>2014-06-03T12:30:29Z</time>
      </trkpt>
      <trkpt lat="41.39574" lon="9.1622">
        <ele>26.09</ele>
        <time>2014-06-03T12:30:30Z</time>
      </trkpt>
      <trkpt lat="41.39559" lon="9.16223">
        <ele>25.13</ele>
        <time>2014-06-03T12:30:31Z</time>
      </trkpt>
      <trkpt lat="41.39544" lon="9.16228">
        <ele>23.69</ele>
        <time>2014-06-03T12:30:32Z</time>
      </trkpt>
      <trkpt lat="41.39529" lon="9.16233">
        <ele>22.73</ele>
        <time>2014-06-03T12:30:33Z</time>
      </trkpt>
      <trkpt lat="41.39463" lon="9.1627">
        <ele>19.84</ele>
        <time>2014-06-03T12:30:38Z</time>
      </trkpt>
      <trkpt lat="41.39451" lon="9.1628">
        <ele>19.84</ele>
        <time>2014-06-03T12:30:39Z</time>
      </trkpt>
      <trkpt lat="41.39431" lon="9.16308">
        <ele>18.4</ele>
        <time>2014-06-03T12:30:41Z</time>
      </trkpt>
      <trkpt lat="41.39425" lon="9.16323">
        <ele>17.92</ele>
        <time>2014-06-03T12:30:42Z</time>
      </trkpt>
      <trkpt lat="41.39419" lon="9.16339">
        <ele>16.96</ele>
        <time>2014-06-03T12:30:43Z</time>
      </trkpt>
      <trkpt lat="41.39381" lon="9.16449">
        <ele>14.08</ele>
        <time>2014-06-03T12:30:51Z</time>
      </trkpt>
      <trkpt lat="41.39358" lon="9.16488">
        <ele>10.71</ele>
        <time>2014-06-03T12:30:55Z</time>
      </trkpt>
      <trkpt lat="41.39353" lon="9.16496">
        <ele>10.23</ele>
        <time>2014-06-03T12:30:56Z</time>
      </trkpt>
      <trkpt lat="41.39344" lon="9.16501">
        <ele>9.27</ele>
        <time>2014-06-03T12:30:57Z</time>
      </trkpt>
      <trkpt lat="41.39335" lon="9.16507">
        <ele>8.79</ele>
        <time>2014-06-03T12:30:58Z</time>
      </trkpt>
      <trkpt lat="41.39324" lon="9.1651">
        <ele>7.83</ele>
        <time>2014-06-03T12:30:59Z</time>
      </trkpt>
      <trkpt lat="41.39315" lon="9.16514">
        <ele>7.35</ele>
        <time>2014-06-03T12:31:00Z</time>
      </trkpt>
      <trkpt lat="41.39307" lon="9.16519">
        <ele>6.87</ele>
        <time>2014-06-03T12:31:01Z</time>
      </trkpt>
      <trkpt lat="41.39301" lon="9.16532">
        <ele>7.83</ele>
        <time>2014-06-03T12:31:02Z</time>
      </trkpt>
      <trkpt lat="41.39294" lon="9.1654">
        <ele>7.35</ele>
        <time>2014-06-03T12:31:03Z</time>
      </trkpt>
      <trkpt lat="41.39287" lon="9.16548">
        <ele>6.87</ele>
        <time>2014-06-03T12:31:04Z</time>
      </trkpt>
      <trkpt lat="41.39273" lon="9.16561">
        <ele>4.94</ele>
        <time>2014-06-03T12:31:06Z</time>
      </trkpt>
      <trkpt lat="41.39265" lon="9.16563">
        <ele>4.94</ele>
        <time>2014-06-03T12:31:07Z</time>
      </trkpt>
      <trkpt lat="41.39259" lon="9.16563">
        <ele>4.46</ele>
        <time>2014-06-03T12:31:08Z</time>
      </trkpt>
      <trkpt lat="41.39251" lon="9.16564">
        <ele>3.98</ele>
        <time>2014-06-03T12:31:09Z</time>
      </trkpt>
      <trkpt lat="41.39243" lon="9.1656">
        <ele>3.5</ele>
        <time>2014-06-03T12:31:10Z</time>
      </trkpt>
      <trkpt lat="41.39233" lon="9.16556">
        <ele>4.46</ele>
        <time>2014-06-03T12:31:11Z</time>
      </trkpt>
      <trkpt lat="41.39225" lon="9.1655">
        <ele>3.98</ele>
        <time>2014-06-03T12:31:12Z</time>
      </trkpt>
      <trkpt lat="41.39143" lon="9.16514">
        <ele>1.58</ele>
        <time>2014-06-03T12:31:21Z</time>
      </trkpt>
      <trkpt lat="41.39053" lon="9.16511">
        <ele>-1.3</ele>
        <time>2014-06-03T12:31:31Z</time>
      </trkpt>
      <trkpt lat="41.38975" lon="9.16539">
        <ele>-3.71</ele>
        <time>2014-06-03T12:31:40Z</time>
      </trkpt>
      <trkpt lat="41.38905" lon="9.16573">
        <ele>-3.71</ele>
        <time>2014-06-03T12:31:52Z</time>
      </trkpt>
      <trkpt lat="41.389" lon="9.16575">
        <ele>-3.71</ele>
        <time>2014-06-03T12:31:53Z</time>
      </trkpt>
      <trkpt lat="41.38892" lon="9.16588">
        <ele>-0.82</ele>
        <time>2014-06-03T12:31:57Z</time>
      </trkpt>
      <trkpt lat="41.38892" lon="9.16591">
        <ele>-0.34</ele>
        <time>2014-06-03T12:31:58Z</time>
      </trkpt>
      <trkpt lat="41.38895" lon="9.16597">
        <ele>-1.79</ele>
        <time>2014-06-03T12:32:08Z</time>
      </trkpt>
      <trkpt lat="41.38896" lon="9.16599">
        <ele>-1.79</ele>
        <time>2014-06-03T12:32:09Z</time>
      </trkpt>
      <trkpt lat="41.389" lon="9.16599">
        <ele>-2.75</ele>
        <time>2014-06-03T12:32:22Z</time>
      </trkpt>
      <trkpt lat="41.38901" lon="9.16599">
        <ele>-3.23</ele>
        <time>2014-06-03T12:32:25Z</time>
      </trkpt>
      <trkpt lat="41.38916" lon="9.16594">
        <ele>-3.23</ele>
        <time>2014-06-03T12:32:35Z</time>
      </trkpt>
      <trkpt lat="41.38919" lon="9.16589">
        <ele>-2.27</ele>
        <time>2014-06-03T12:32:54Z</time>
      </trkpt>
      <trkpt lat="41.3892" lon="9.16592">
        <ele>-1.79</ele>
        <time>2014-06-03T12:33:19Z</time>
      </trkpt>
      <trkpt lat="41.38921" lon="9.16593">
        <ele>-0.82</ele>
        <time>2014-06-03T12:33:50Z</time>
      </trkpt>
      <trkpt lat="41.38921" lon="9.16592">
        <ele>-0.82</ele>
        <time>2014-06-03T12:34:58Z</time>
      </trkpt>
      <trkpt lat="41.3892" lon="9.1659">
        <ele>3.98</ele>
        <time>2014-06-03T13:55:17Z</time>
      </trkpt>
      <trkpt lat="41.3892" lon="9.1659">
        <ele>1.1</ele>
        <time>2014-06-03T13:55:47Z</time>
      </trkpt>
      <trkpt lat="41.38919" lon="9.1659">
        <ele>1.1</ele>
        <time>2014-06-03T13:55:52Z</time>
      </trkpt>
      <trkpt lat="41.38899" lon="9.16594">
        <ele>1.58</ele>
        <time>2014-06-03T13:56:01Z</time>
      </trkpt>
      <trkpt lat="41.38894" lon="9.1659">
        <ele>1.58</ele>
        <time>2014-06-03T13:56:05Z</time>
      </trkpt>
      <trkpt lat="41.38892" lon="9.16584">
        <ele>1.1</ele>
        <time>2014-06-03T13:56:21Z</time>
      </trkpt>
      <trkpt lat="41.38891" lon="9.16582">
        <ele>1.1</ele>
        <time>2014-06-03T13:56:22Z</time>
      </trkpt>
      <trkpt lat="41.3888" lon="9.16583">
        <ele>0.62</ele>
        <time>2014-06-03T13:56:25Z</time>
      </trkpt>
      <trkpt lat="41.38835" lon="9.16596">
        <ele>-0.82</ele>
        <time>2014-06-03T13:56:34Z</time>
      </trkpt>
      <trkpt lat="41.38829" lon="9.16593">
        <ele>-1.3</ele>
        <time>2014-06-03T13:56:35Z</time>
      </trkpt>
      <trkpt lat="41.38822" lon="9.16586">
        <ele>-1.79</ele>
        <time>2014-06-03T13:56:36Z</time>
      </trkpt>
      <trkpt lat="41.38817" lon="9.16575">
        <ele>-1.79</ele>
        <time>2014-06-03T13:56:37Z</time>
      </trkpt>
      <trkpt lat="41.38811" lon="9.16565">
        <ele>-2.27</ele>
        <time>2014-06-03T13:56:38Z</time>
      </trkpt>
      <trkpt lat="41.38812" lon="9.16552">
        <ele>-2.75</ele>
        <time>2014-06-03T13:56:39Z</time>
      </trkpt>
      <trkpt lat="41.38804" lon="9.16503">
        <ele>-2.75</ele>
        <time>2014-06-03T13:56:43Z</time>
      </trkpt>
      <trkpt lat="41.38801" lon="9.16482">
        <ele>-2.75</ele>
        <time>2014-06-03T13:56:45Z</time>
      </trkpt>
      <trkpt lat="41.38798" lon="9.16472">
        <ele>-2.75</ele>
        <time>2014-06-03T13:56:46Z</time>
      </trkpt>
      <trkpt lat="41.38794" lon="9.16464">
        <ele>-2.27</ele>
        <time>2014-06-03T13:56:47Z</time>
      </trkpt>
      <trkpt lat="41.38789" lon="9.16456">
        <ele>-1.3</ele>
        <time>2014-06-03T13:56:48Z</time>
      </trkpt>
      <trkpt lat="41.38783" lon="9.16448">
        <ele>-0.82</ele>
        <time>2014-06-03T13:56:49Z</time>
      </trkpt>
      <trkpt lat="41.38775" lon="9.16432">
        <ele>-0.34</ele>
        <time>2014-06-03T13:56:51Z</time>
      </trkpt>
      <trkpt lat="41.38772" lon="9.16424">
        <ele>1.1</ele>
        <time>2014-06-03T13:56:52Z</time>
      </trkpt>
      <trkpt lat="41.38771" lon="9.16414">
        <ele>2.06</ele>
        <time>2014-06-03T13:56:53Z</time>
      </trkpt>
      <trkpt lat="41.38771" lon="9.16404">
        <ele>3.5</ele>
        <time>2014-06-03T13:56:54Z</time>
      </trkpt>
      <trkpt lat="41.38771" lon="9.16393">
        <ele>4.94</ele>
        <time>2014-06-03T13:56:55Z</time>
      </trkpt>
      <trkpt lat="41.38775" lon="9.16348">
        <ele>7.83</ele>
        <time>2014-06-03T13:56:59Z</time>
      </trkpt>
      <trkpt lat="41.38776" lon="9.1631">
        <ele>11.19</ele>
        <time>2014-06-03T13:57:02Z</time>
      </trkpt>
      <trkpt lat="41.38784" lon="9.16231">
        <ele>14.08</ele>
        <time>2014-06-03T13:57:10Z</time>
      </trkpt>
      <trkpt lat="41.38783" lon="9.16224">
        <ele>14.56</ele>
        <time>2014-06-03T13:57:11Z</time>
      </trkpt>
      <trkpt lat="41.38782" lon="9.16218">
        <ele>15.04</ele>
        <time>2014-06-03T13:57:12Z</time>
      </trkpt>
      <trkpt lat="41.38779" lon="9.16211">
        <ele>15.04</ele>
        <time>2014-06-03T13:57:13Z</time>
      </trkpt>
      <trkpt lat="41.38776" lon="9.16204">
        <ele>16.48</ele>
        <time>2014-06-03T13:57:14Z</time>
      </trkpt>
      <trkpt lat="41.3877" lon="9.16197">
        <ele>16.96</ele>
        <time>2014-06-03T13:57:15Z</time>
      </trkpt>
      <trkpt lat="41.38764" lon="9.1619">
        <ele>17.44</ele>
        <time>2014-06-03T13:57:16Z</time>
      </trkpt>
      <trkpt lat="41.38757" lon="9.16185">
        <ele>17.92</ele>
        <time>2014-06-03T13:57:17Z</time>
      </trkpt>
      <trkpt lat="41.38752" lon="9.16179">
        <ele>18.4</ele>
        <time>2014-06-03T13:57:18Z</time>
      </trkpt>
      <trkpt lat="41.38742" lon="9.16162">
        <ele>19.84</ele>
        <time>2014-06-03T13:57:20Z</time>
      </trkpt>
      <trkpt lat="41.3871" lon="9.16093">
        <ele>26.09</ele>
        <time>2014-06-03T13:57:29Z</time>
      </trkpt>
      <trkpt lat="41.38706" lon="9.16079">
        <ele>26.57</ele>
        <time>2014-06-03T13:57:31Z</time>
      </trkpt>
      <trkpt lat="41.38708" lon="9.16072">
        <ele>27.53</ele>
        <time>2014-06-03T13:57:32Z</time>
      </trkpt>
      <trkpt lat="41.3871" lon="9.16067">
        <ele>28.02</ele>
        <time>2014-06-03T13:57:33Z</time>
      </trkpt>
      <trkpt lat="41.38715" lon="9.16065">
        <ele>28.02</ele>
        <time>2014-06-03T13:57:34Z</time>
      </trkpt>
      <trkpt lat="41.38722" lon="9.16066">
        <ele>29.46</ele>
        <time>2014-06-03T13:57:35Z</time>
      </trkpt>
      <trkpt lat="41.38729" lon="9.16069">
        <ele>29.46</ele>
        <time>2014-06-03T13:57:36Z</time>
      </trkpt>
      <trkpt lat="41.38736" lon="9.16072">
        <ele>28.98</ele>
        <time>2014-06-03T13:57:37Z</time>
      </trkpt>
      <trkpt lat="41.38773" lon="9.16089">
        <ele>30.42</ele>
        <time>2014-06-03T13:57:42Z</time>
      </trkpt>
      <trkpt lat="41.3878" lon="9.1609">
        <ele>30.42</ele>
        <time>2014-06-03T13:57:43Z</time>
      </trkpt>
      <trkpt lat="41.38787" lon="9.1609">
        <ele>30.9</ele>
        <time>2014-06-03T13:57:44Z</time>
      </trkpt>
      <trkpt lat="41.38814" lon="9.16086">
        <ele>31.86</ele>
        <time>2014-06-03T13:57:48Z</time>
      </trkpt>
      <trkpt lat="41.38819" lon="9.16084">
        <ele>31.86</ele>
        <time>2014-06-03T13:57:49Z</time>
      </trkpt>
      <trkpt lat="41.38823" lon="9.16081">
        <ele>31.86</ele>
        <time>2014-06-03T13:57:50Z</time>
      </trkpt>
      <trkpt lat="41.38826" lon="9.16078">
        <ele>31.86</ele>
        <time>2014-06-03T13:57:51Z</time>
      </trkpt>
      <trkpt lat="41.38829" lon="9.16073">
        <ele>32.34</ele>
        <time>2014-06-03T13:57:52Z</time>
      </trkpt>
      <trkpt lat="41.3883" lon="9.16066">
        <ele>32.34</ele>
        <time>2014-06-03T13:57:53Z</time>
      </trkpt>
      <trkpt lat="41.38831" lon="9.16059">
        <ele>32.34</ele>
        <time>2014-06-03T13:57:54Z</time>
      </trkpt>
      <trkpt lat="41.38833" lon="9.16033">
        <ele>31.86</ele>
        <time>2014-06-03T13:57:59Z</time>
      </trkpt>
      <trkpt lat="41.38815" lon="9.15941">
        <ele>23.69</ele>
        <time>2014-06-03T13:58:11Z</time>
      </trkpt>
      <trkpt lat="41.38807" lon="9.15889">
        <ele>19.84</ele>
        <time>2014-06-03T13:58:19Z</time>
      </trkpt>
      <trkpt lat="41.38807" lon="9.15854">
        <ele>18.4</ele>
        <time>2014-06-03T13:58:30Z</time>
      </trkpt>
      <trkpt lat="41.38805" lon="9.15837">
        <ele>16.96</ele>
        <time>2014-06-03T13:58:35Z</time>
      </trkpt>
      <trkpt lat="41.38804" lon="9.15833">
        <ele>16.48</ele>
        <time>2014-06-03T13:58:36Z</time>
      </trkpt>
      <trkpt lat="41.38803" lon="9.15827">
        <ele>16</ele>
        <time>2014-06-03T13:58:37Z</time>
      </trkpt>
      <trkpt lat="41.38785" lon="9.15787">
        <ele>11.19</ele>
        <time>2014-06-03T13:58:46Z</time>
      </trkpt>
      <trkpt lat="41.38773" lon="9.15782">
        <ele>10.71</ele>
        <time>2014-06-03T13:58:47Z</time>
      </trkpt>
      <trkpt lat="41.38767" lon="9.1578">
        <ele>10.23</ele>
        <time>2014-06-03T13:58:48Z</time>
      </trkpt>
      <trkpt lat="41.38762" lon="9.15782">
        <ele>10.71</ele>
        <time>2014-06-03T13:58:49Z</time>
      </trkpt>
      <trkpt lat="41.38756" lon="9.15785">
        <ele>11.19</ele>
        <time>2014-06-03T13:58:50Z</time>
      </trkpt>
      <trkpt lat="41.38751" lon="9.15787">
        <ele>11.19</ele>
        <time>2014-06-03T13:58:51Z</time>
      </trkpt>
      <trkpt lat="41.38746" lon="9.15789">
        <ele>11.19</ele>
        <time>2014-06-03T13:58:52Z</time>
      </trkpt>
      <trkpt lat="41.38741" lon="9.15789">
        <ele>11.67</ele>
        <time>2014-06-03T13:58:53Z</time>
      </trkpt>
      <trkpt lat="41.38737" lon="9.1579">
        <ele>12.15</ele>
        <time>2014-06-03T13:58:54Z</time>
      </trkpt>
      <trkpt lat="41.38733" lon="9.15789">
        <ele>12.63</ele>
        <time>2014-06-03T13:58:55Z</time>
      </trkpt>
      <trkpt lat="41.3873" lon="9.15786">
        <ele>13.12</ele>
        <time>2014-06-03T13:58:56Z</time>
      </trkpt>
      <trkpt lat="41.38727" lon="9.15784">
        <ele>14.08</ele>
        <time>2014-06-03T13:58:57Z</time>
      </trkpt>
      <trkpt lat="41.38726" lon="9.15779">
        <ele>14.56</ele>
        <time>2014-06-03T13:58:58Z</time>
      </trkpt>
      <trkpt lat="41.38727" lon="9.15771">
        <ele>15.52</ele>
        <time>2014-06-03T13:58:59Z</time>
      </trkpt>
      <trkpt lat="41.38744" lon="9.15665">
        <ele>35.71</ele>
        <time>2014-06-03T13:59:13Z</time>
      </trkpt>
      <trkpt lat="41.38749" lon="9.15629">
        <ele>41.95</ele>
        <time>2014-06-03T13:59:23Z</time>
      </trkpt>
      <trkpt lat="41.38746" lon="9.15622">
        <ele>42.44</ele>
        <time>2014-06-03T13:59:34Z</time>
      </trkpt>
      <trkpt lat="41.38746" lon="9.15565">
        <ele>44.36</ele>
        <time>2014-06-03T13:59:40Z</time>
      </trkpt>
      <trkpt lat="41.38749" lon="9.15534">
        <ele>46.76</ele>
        <time>2014-06-03T13:59:43Z</time>
      </trkpt>
      <trkpt lat="41.3875" lon="9.15515">
        <ele>48.2</ele>
        <time>2014-06-03T13:59:47Z</time>
      </trkpt>
      <trkpt lat="41.38752" lon="9.15486">
        <ele>48.2</ele>
        <time>2014-06-03T13:59:51Z</time>
      </trkpt>
      <trkpt lat="41.38756" lon="9.15433">
        <ele>50.61</ele>
        <time>2014-06-03T14:00:01Z</time>
      </trkpt>
      <trkpt lat="41.38764" lon="9.15407">
        <ele>53.01</ele>
        <time>2014-06-03T14:00:04Z</time>
      </trkpt>
      <trkpt lat="41.38767" lon="9.15401">
        <ele>53.49</ele>
        <time>2014-06-03T14:00:05Z</time>
      </trkpt>
      <trkpt lat="41.38772" lon="9.15395">
        <ele>53.97</ele>
        <time>2014-06-03T14:00:06Z</time>
      </trkpt>
      <trkpt lat="41.38801" lon="9.15353">
        <ele>53.01</ele>
        <time>2014-06-03T14:00:11Z</time>
      </trkpt>
      <trkpt lat="41.38804" lon="9.15343">
        <ele>53.01</ele>
        <time>2014-06-03T14:00:12Z</time>
      </trkpt>
      <trkpt lat="41.38805" lon="9.15331">
        <ele>53.49</ele>
        <time>2014-06-03T14:00:13Z</time>
      </trkpt>
      <trkpt lat="41.38803" lon="9.15317">
        <ele>54.45</ele>
        <time>2014-06-03T14:00:14Z</time>
      </trkpt>
      <trkpt lat="41.38799" lon="9.15303">
        <ele>55.41</ele>
        <time>2014-06-03T14:00:15Z</time>
      </trkpt>
      <trkpt lat="41.38797" lon="9.15291">
        <ele>55.89</ele>
        <time>2014-06-03T14:00:16Z</time>
      </trkpt>
      <trkpt lat="41.38795" lon="9.15279">
        <ele>56.37</ele>
        <time>2014-06-03T14:00:17Z</time>
      </trkpt>
      <trkpt lat="41.38794" lon="9.15268">
        <ele>57.34</ele>
        <time>2014-06-03T14:00:18Z</time>
      </trkpt>
      <trkpt lat="41.38791" lon="9.15194">
        <ele>54.93</ele>
        <time>2014-06-03T14:00:25Z</time>
      </trkpt>
      <trkpt lat="41.38789" lon="9.15186">
        <ele>53.49</ele>
        <time>2014-06-03T14:00:26Z</time>
      </trkpt>
      <trkpt lat="41.38787" lon="9.15179">
        <ele>53.49</ele>
        <time>2014-06-03T14:00:27Z</time>
      </trkpt>
      <trkpt lat="41.38784" lon="9.15173">
        <ele>53.49</ele>
        <time>2014-06-03T14:00:28Z</time>
      </trkpt>
      <trkpt lat="41.38781" lon="9.1517">
        <ele>53.01</ele>
        <time>2014-06-03T14:00:29Z</time>
      </trkpt>
      <trkpt lat="41.38776" lon="9.15168">
        <ele>53.01</ele>
        <time>2014-06-03T14:00:30Z</time>
      </trkpt>
      <trkpt lat="41.38772" lon="9.15167">
        <ele>53.01</ele>
        <time>2014-06-03T14:00:31Z</time>
      </trkpt>
      <trkpt lat="41.38766" lon="9.15167">
        <ele>53.49</ele>
        <time>2014-06-03T14:00:32Z</time>
      </trkpt>
      <trkpt lat="41.38761" lon="9.15167">
        <ele>53.49</ele>
        <time>2014-06-03T14:00:33Z</time>
      </trkpt>
      <trkpt lat="41.38755" lon="9.15168">
        <ele>53.49</ele>
        <time>2014-06-03T14:00:34Z</time>
      </trkpt>
      <trkpt lat="41.3875" lon="9.15169">
        <ele>53.01</ele>
        <time>2014-06-03T14:00:35Z</time>
      </trkpt>
      <trkpt lat="41.3874" lon="9.1517">
        <ele>52.53</ele>
        <time>2014-06-03T14:00:37Z</time>
      </trkpt>
      <trkpt lat="41.38736" lon="9.15169">
        <ele>52.53</ele>
        <time>2014-06-03T14:00:38Z</time>
      </trkpt>
      <trkpt lat="41.38733" lon="9.15165">
        <ele>51.57</ele>
        <time>2014-06-03T14:00:39Z</time>
      </trkpt>
      <trkpt lat="41.3873" lon="9.15162">
        <ele>51.09</ele>
        <time>2014-06-03T14:00:40Z</time>
      </trkpt>
      <trkpt lat="41.38727" lon="9.15156">
        <ele>51.57</ele>
        <time>2014-06-03T14:00:41Z</time>
      </trkpt>
      <trkpt lat="41.38725" lon="9.15151">
        <ele>51.57</ele>
        <time>2014-06-03T14:00:42Z</time>
      </trkpt>
      <trkpt lat="41.38724" lon="9.15147">
        <ele>51.09</ele>
        <time>2014-06-03T14:00:43Z</time>
      </trkpt>
      <trkpt lat="41.38721" lon="9.15126">
        <ele>53.49</ele>
        <time>2014-06-03T14:00:53Z</time>
      </trkpt>
      <trkpt lat="41.38716" lon="9.15116">
        <ele>53.01</ele>
        <time>2014-06-03T14:00:59Z</time>
      </trkpt>
      <trkpt lat="41.38715" lon="9.15125">
        <ele>52.53</ele>
        <time>2014-06-03T14:01:04Z</time>
      </trkpt>
      <trkpt lat="41.3872" lon="9.15125">
        <ele>52.53</ele>
        <time>2014-06-03T14:01:06Z</time>
      </trkpt>
      <trkpt lat="41.38727" lon="9.15118">
        <ele>53.97</ele>
        <time>2014-06-03T14:01:14Z</time>
      </trkpt>
      <trkpt lat="41.38729" lon="9.15117">
        <ele>53.49</ele>
        <time>2014-06-03T14:01:25Z</time>
      </trkpt>
      <trkpt lat="41.38728" lon="9.15116">
        <ele>53.49</ele>
        <time>2014-06-03T14:01:27Z</time>
      </trkpt>
      <trkpt lat="41.38727" lon="9.15118">
        <ele>53.49</ele>
        <time>2014-06-03T14:01:29Z</time>
      </trkpt>
      <trkpt lat="41.38724" lon="9.15121">
        <ele>53.49</ele>
        <time>2014-06-03T14:01:46Z</time>
      </trkpt>
      <trkpt lat="41.38723" lon="9.1512">
        <ele>53.01</ele>
        <time>2014-06-03T14:02:04Z</time>
      </trkpt>
      <trkpt lat="41.38723" lon="9.1512">
        <ele>52.53</ele>
        <time>2014-06-03T14:02:57Z</time>
      </trkpt>
      <trkpt lat="41.38723" lon="9.15123">
        <ele>52.05</ele>
        <time>2014-06-03T14:03:19Z</time>
      </trkpt>
      <trkpt lat="41.38721" lon="9.15124">
        <ele>52.05</ele>
        <time>2014-06-03T14:03:20Z</time>
      </trkpt>
      <trkpt lat="41.38716" lon="9.15114">
        <ele>49.65</ele>
        <time>2014-06-03T14:03:29Z</time>
      </trkpt>
      <trkpt lat="41.38715" lon="9.15115">
        <ele>52.53</ele>
        <time>2014-06-03T14:03:43Z</time>
      </trkpt>
      <trkpt lat="41.38715" lon="9.15115">
        <ele>52.53</ele>
        <time>2014-06-03T14:03:44Z</time>
      </trkpt>
      <trkpt lat="41.38716" lon="9.15125">
        <ele>53.01</ele>
        <time>2014-06-03T14:03:47Z</time>
      </trkpt>
      <trkpt lat="41.3872" lon="9.15132">
        <ele>53.01</ele>
        <time>2014-06-03T14:03:55Z</time>
      </trkpt>
      <trkpt lat="41.38719" lon="9.15134">
        <ele>54.93</ele>
        <time>2014-06-03T14:04:16Z</time>
      </trkpt>
      <trkpt lat="41.38719" lon="9.15134">
        <ele>54.45</ele>
        <time>2014-06-03T14:04:26Z</time>
      </trkpt>
      <trkpt lat="41.38716" lon="9.15125">
        <ele>53.49</ele>
        <time>2014-06-03T14:04:32Z</time>
      </trkpt>
      <trkpt lat="41.38718" lon="9.15116">
        <ele>51.09</ele>
        <time>2014-06-03T14:04:40Z</time>
      </trkpt>
      <trkpt lat="41.38713" lon="9.15115">
        <ele>55.89</ele>
        <time>2014-06-03T14:04:59Z</time>
      </trkpt>
    </trkseg>
  </trk>
  <rte>
    <name><![CDATA[412o2]]></name>
      <rtept lat="43.29703" lon="3.51239">
        <ele>9.8</ele>
        <name><![CDATA[Début]]></name>
      </rtept>
      <rtept lat="45.53327" lon="4.63035">
        <ele>227</ele>
        <name><![CDATA[Fin]]></name>
      </rtept>
    </rte>
  <rte>
    <name><![CDATA[Enregistremen: 20 Avr. 2014 11:54]]></name>
      <rtept lat="43.29703" lon="3.51239">
        <ele>9.8</ele>
        <name><![CDATA[Début]]></name>
      </rtept>
      <rtept lat="43.29697" lon="3.51234">
        <ele>10</ele>
        <name><![CDATA[Fin]]></name>
      </rtept>
    </rte>
  <rte>
    <name><![CDATA[Enregistremen: 25 Avr. 2014 18:53]]></name>
      <rtept lat="43.29985" lon="3.47166">
        <ele>11.5</ele>
        <name><![CDATA[Début]]></name>
      </rtept>
      <rtept lat="43.29703" lon="3.51217">
        <ele>10.3</ele>
        <name><![CDATA[Fin]]></name>
      </rtept>
    </rte>
  <rte>
    <name><![CDATA[Enregistremen: 26 Avr. 2014 09:29]]></name>
      <rtept lat="43.29708" lon="3.51221">
        <ele>10.1</ele>
        <name><![CDATA[Début]]></name>
      </rtept>
      <rtept lat="44.8036" lon="3.42125">
        <ele>1116.3</ele>
        <name><![CDATA[Fin]]></name>
      </rtept>
    </rte>
  <rte>
    <name><![CDATA[Enregistremen: 26 Avr. 2014 13:36]]></name>
      <rtept lat="44.80459" lon="3.42344">
        <ele>1127.9</ele>
        <name><![CDATA[Début]]></name>
      </rtept>
      <rtept lat="45.5332" lon="4.63052">
        <ele>227</ele>
        <name><![CDATA[Fin]]></name>
      </rtept>
    </rte>
  <rte>
    <name><![CDATA[Enregistremen: 27 Avr. 2014 17:19]]></name>
      <rtept lat="45.53325" lon="4.63029">
        <ele>227</ele>
        <name><![CDATA[Début]]></name>
      </rtept>
      <rtept lat="45.53314" lon="4.6305">
        <ele>227</ele>
        <name><![CDATA[Fin]]></name>
      </rtept>
    </rte>
  <rte>
    <name><![CDATA[Enregistremen: 29 Avr. 2014 16:08]]></name>
      <rtept lat="45.70924" lon="4.98048">
        <ele>212</ele>
        <name><![CDATA[Début]]></name>
      </rtept>
      <rtept lat="45.87983" lon="4.59593">
        <ele>320.7</ele>
        <name><![CDATA[Fin]]></name>
      </rtept>
    </rte>
  <rte>
    <name><![CDATA[Enregistremen: 30 Avr. 2014 13:54]]></name>
      <rtept lat="45.87974" lon="4.59628">
        <ele>312.7</ele>
        <name><![CDATA[Début]]></name>
      </rtept>
      <rtept lat="45.70896" lon="4.98136">
        <ele>212</ele>
        <name><![CDATA[Fin]]></name>
      </rtept>
    </rte>
  <rte>
    <name><![CDATA[Enregistremen: 30 Avr. 2014 14:59]]></name>
      <rtept lat="45.70843" lon="4.98123">
        <ele>212</ele>
        <name><![CDATA[Début]]></name>
      </rtept>
      <rtept lat="45.53091" lon="4.62177">
        <ele>232.5</ele>
        <name><![CDATA[Fin]]></name>
      </rtept>
    </rte>
  <rte>
    <name><![CDATA[Lesfauxrdg]]></name>
      <rtept lat="44.80459" lon="3.42344">
        <ele>1127.9</ele>
        <name><![CDATA[Début]]></name>
      </rtept>
      <rtept lat="45.5332" lon="4.63052">
        <ele>227</ele>
        <name><![CDATA[Fin]]></name>
      </rtept>
    </rte>
</gpx>